<?xml version="1.0" encoding="UTF-8" standalone="no" ?>
<gpx xmlns="http://www.topografix.com/GPX/1/1" xmlns:xsi="http://www.w3.org/2001/XMLSchema-instance" xsi:schemaLocation="http://www.topografix.com/GPX/1/1 http://www.topografix.com/GPX/1/1/gpx.xsd" version="1.1" creator="VisuGPX - https://www.visugpx.com">
  <metadata>
    <name>Vélo - Arques2 </name>
    <desc><![CDATA[

]]></desc>
  </metadata>
  <trk>
    <name><![CDATA[Arques velo 16km_1]]></name>
    <desc><![CDATA[













]]></desc>
    <extensions>
      <line xmlns="http://www.topografix.com/GPX/gpx_style/0/2">
        <color>0000FF</color>
        <width>4</width>
      </line>
    </extensions>
    <trkseg>
      <trkpt lat="42.94729" lon="2.37301">
        <ele>366.5</ele>
        <time>2024-09-10T08:30:01.000Z</time>
      </trkpt>
      <trkpt lat="42.94728" lon="2.37309">
        <ele>367</ele>
        <time>2024-09-10T08:30:06.421Z</time>
      </trkpt>
      <trkpt lat="42.94727" lon="2.37319">
        <ele>367.3</ele>
        <time>2024-09-10T08:30:12.253Z</time>
      </trkpt>
      <trkpt lat="42.9473" lon="2.37342">
        <ele>368.7</ele>
        <time>2024-09-10T08:30:27.736Z</time>
      </trkpt>
      <trkpt lat="42.94735" lon="2.37367">
        <ele>369.5</ele>
        <time>2024-09-10T08:30:42.786Z</time>
      </trkpt>
      <trkpt lat="42.94739" lon="2.37385">
        <ele>369.9</ele>
        <time>2024-09-10T08:30:53.259Z</time>
      </trkpt>
      <trkpt lat="42.94746" lon="2.37416">
        <ele>368.5</ele>
        <time>2024-09-10T08:31:07.687Z</time>
      </trkpt>
      <trkpt lat="42.94754" lon="2.37441">
        <ele>371.1</ele>
        <time>2024-09-10T08:31:29.115Z</time>
      </trkpt>
      <trkpt lat="42.94762" lon="2.37468">
        <ele>372.6</ele>
        <time>2024-09-10T08:31:47.681Z</time>
      </trkpt>
      <trkpt lat="42.94767" lon="2.37483">
        <ele>372.8</ele>
        <time>2024-09-10T08:31:56.502Z</time>
      </trkpt>
      <trkpt lat="42.94773" lon="2.37498">
        <ele>372.4</ele>
        <time>2024-09-10T08:32:04.391Z</time>
      </trkpt>
      <trkpt lat="42.9478" lon="2.37514">
        <ele>373.2</ele>
        <time>2024-09-10T08:32:15.816Z</time>
      </trkpt>
      <trkpt lat="42.94787" lon="2.37527">
        <ele>375</ele>
        <time>2024-09-10T08:32:29.565Z</time>
      </trkpt>
      <trkpt lat="42.94794" lon="2.37539">
        <ele>375.5</ele>
        <time>2024-09-10T08:32:38.545Z</time>
      </trkpt>
      <trkpt lat="42.94801" lon="2.37548">
        <ele>375.6</ele>
        <time>2024-09-10T08:32:45.438Z</time>
      </trkpt>
      <trkpt lat="42.94809" lon="2.37556">
        <ele>375.7</ele>
        <time>2024-09-10T08:32:52.541Z</time>
      </trkpt>
      <trkpt lat="42.94818" lon="2.37561">
        <ele>376.8</ele>
        <time>2024-09-10T08:33:02.350Z</time>
      </trkpt>
      <trkpt lat="42.94827" lon="2.37566">
        <ele>377.6</ele>
        <time>2024-09-10T08:33:11.161Z</time>
      </trkpt>
      <trkpt lat="42.94838" lon="2.3757">
        <ele>378.5</ele>
        <time>2024-09-10T08:33:21.369Z</time>
      </trkpt>
      <trkpt lat="42.94847" lon="2.37575">
        <ele>378.6</ele>
        <time>2024-09-10T08:33:28.334Z</time>
      </trkpt>
      <trkpt lat="42.94858" lon="2.37582">
        <ele>378.8</ele>
        <time>2024-09-10T08:33:37.204Z</time>
      </trkpt>
      <trkpt lat="42.94865" lon="2.3759">
        <ele>379.2</ele>
        <time>2024-09-10T08:33:44.483Z</time>
      </trkpt>
      <trkpt lat="42.94872" lon="2.37597">
        <ele>380.1</ele>
        <time>2024-09-10T08:33:52.955Z</time>
      </trkpt>
      <trkpt lat="42.94878" lon="2.37606">
        <ele>380.3</ele>
        <time>2024-09-10T08:33:59.591Z</time>
      </trkpt>
      <trkpt lat="42.94884" lon="2.37619">
        <ele>380.2</ele>
        <time>2024-09-10T08:34:07.192Z</time>
      </trkpt>
      <trkpt lat="42.94891" lon="2.37635">
        <ele>379.6</ele>
        <time>2024-09-10T08:34:15.497Z</time>
      </trkpt>
      <trkpt lat="42.94897" lon="2.37649">
        <ele>379.1</ele>
        <time>2024-09-10T08:34:22.764Z</time>
      </trkpt>
      <trkpt lat="42.94902" lon="2.37655">
        <ele>379.1</ele>
        <time>2024-09-10T08:34:27.385Z</time>
      </trkpt>
      <trkpt lat="42.94908" lon="2.37661">
        <ele>379</ele>
        <time>2024-09-10T08:34:32.341Z</time>
      </trkpt>
      <trkpt lat="42.94902" lon="2.37663">
        <ele>378.7</ele>
        <time>2024-09-10T08:34:36.093Z</time>
      </trkpt>
      <trkpt lat="42.94896" lon="2.37663">
        <ele>378.4</ele>
        <time>2024-09-10T08:34:39.738Z</time>
      </trkpt>
      <trkpt lat="42.94887" lon="2.37661">
        <ele>377.9</ele>
        <time>2024-09-10T08:34:45.279Z</time>
      </trkpt>
      <trkpt lat="42.94875" lon="2.37658">
        <ele>376.5</ele>
        <time>2024-09-10T08:34:52.691Z</time>
      </trkpt>
      <trkpt lat="42.94854" lon="2.37648">
        <ele>374.5</ele>
        <time>2024-09-10T08:35:06.203Z</time>
      </trkpt>
      <trkpt lat="42.94824" lon="2.37633">
        <ele>372</ele>
        <time>2024-09-10T08:35:25.612Z</time>
      </trkpt>
      <trkpt lat="42.94805" lon="2.37625">
        <ele>371.5</ele>
        <time>2024-09-10T08:35:38.405Z</time>
      </trkpt>
      <trkpt lat="42.94798" lon="2.37622">
        <ele>371.3</ele>
        <time>2024-09-10T08:35:43.096Z</time>
      </trkpt>
      <trkpt lat="42.9479" lon="2.3762">
        <ele>370.9</ele>
        <time>2024-09-10T08:35:48.037Z</time>
      </trkpt>
      <trkpt lat="42.94783" lon="2.37619">
        <ele>370.6</ele>
        <time>2024-09-10T08:35:52.338Z</time>
      </trkpt>
      <trkpt lat="42.94782" lon="2.37619">
        <ele>370.5</ele>
        <time>2024-09-10T08:35:52.945Z</time>
        <extensions>
          <visugpx:TrkExtension xmlns:visugpx="https://www.visugpx.com/editgpx/">
            <visugpx:node>1</visugpx:node>
            </visugpx:TrkExtension>
        </extensions>
      </trkpt>
      <trkpt lat="42.94772" lon="2.37619">
        <ele>370.5</ele>
        <time>2024-09-10T08:35:59.889Z</time>
      </trkpt>
      <trkpt lat="42.94762" lon="2.37618">
        <ele>370.7</ele>
        <time>2024-09-10T08:36:07.298Z</time>
      </trkpt>
      <trkpt lat="42.94755" lon="2.37616">
        <ele>370.6</ele>
        <time>2024-09-10T08:36:12.056Z</time>
      </trkpt>
      <trkpt lat="42.94749" lon="2.37612">
        <ele>370.3</ele>
        <time>2024-09-10T08:36:16.113Z</time>
      </trkpt>
      <trkpt lat="42.94744" lon="2.37608">
        <ele>371.1</ele>
        <time>2024-09-10T08:36:22.510Z</time>
      </trkpt>
      <trkpt lat="42.94739" lon="2.37605">
        <ele>371.8</ele>
        <time>2024-09-10T08:36:28.327Z</time>
      </trkpt>
      <trkpt lat="42.94732" lon="2.37594">
        <ele>371.7</ele>
        <time>2024-09-10T08:36:35.526Z</time>
      </trkpt>
      <trkpt lat="42.94721" lon="2.37579">
        <ele>370.6</ele>
        <time>2024-09-10T08:36:44.969Z</time>
      </trkpt>
      <trkpt lat="42.94714" lon="2.37569">
        <ele>370.6</ele>
        <time>2024-09-10T08:36:52.002Z</time>
      </trkpt>
      <trkpt lat="42.94701" lon="2.37549">
        <ele>370</ele>
        <time>2024-09-10T08:37:04.395Z</time>
      </trkpt>
      <trkpt lat="42.9469" lon="2.37531">
        <ele>369.5</ele>
        <time>2024-09-10T08:37:15.309Z</time>
      </trkpt>
      <trkpt lat="42.94685" lon="2.37525">
        <ele>369.6</ele>
        <time>2024-09-10T08:37:20.151Z</time>
      </trkpt>
      <trkpt lat="42.94676" lon="2.37517">
        <ele>370</ele>
        <time>2024-09-10T08:37:28.535Z</time>
      </trkpt>
      <trkpt lat="42.94663" lon="2.37504">
        <ele>369.6</ele>
        <time>2024-09-10T08:37:38.911Z</time>
      </trkpt>
      <trkpt lat="42.94651" lon="2.37488">
        <ele>369.2</ele>
        <time>2024-09-10T08:37:49.741Z</time>
      </trkpt>
      <trkpt lat="42.94638" lon="2.37472">
        <ele>368</ele>
        <time>2024-09-10T08:38:00.373Z</time>
      </trkpt>
      <trkpt lat="42.94633" lon="2.37465">
        <ele>367.2</ele>
        <time>2024-09-10T08:38:04.722Z</time>
      </trkpt>
      <trkpt lat="42.94628" lon="2.37462">
        <ele>366.9</ele>
        <time>2024-09-10T08:38:08.040Z</time>
      </trkpt>
      <trkpt lat="42.94621" lon="2.37459">
        <ele>366.7</ele>
        <time>2024-09-10T08:38:12.731Z</time>
      </trkpt>
      <trkpt lat="42.94605" lon="2.37455">
        <ele>366.1</ele>
        <time>2024-09-10T08:38:22.839Z</time>
      </trkpt>
      <trkpt lat="42.9458" lon="2.37451">
        <ele>363.8</ele>
        <time>2024-09-10T08:38:38.132Z</time>
      </trkpt>
      <trkpt lat="42.94559" lon="2.37448">
        <ele>362.6</ele>
        <time>2024-09-10T08:38:50.961Z</time>
      </trkpt>
      <trkpt lat="42.94543" lon="2.37445">
        <ele>361.2</ele>
        <time>2024-09-10T08:39:00.774Z</time>
      </trkpt>
      <trkpt lat="42.94536" lon="2.37444">
        <ele>360.6</ele>
        <time>2024-09-10T08:39:05.050Z</time>
      </trkpt>
      <trkpt lat="42.94528" lon="2.37443">
        <ele>359.9</ele>
        <time>2024-09-10T08:39:09.931Z</time>
      </trkpt>
      <trkpt lat="42.94516" lon="2.37445">
        <ele>359.7</ele>
        <time>2024-09-10T08:39:17.912Z</time>
      </trkpt>
      <trkpt lat="42.94504" lon="2.37447">
        <ele>359.4</ele>
        <time>2024-09-10T08:39:25.698Z</time>
      </trkpt>
      <trkpt lat="42.94482" lon="2.37454">
        <ele>358.6</ele>
        <time>2024-09-10T08:39:39.797Z</time>
      </trkpt>
      <trkpt lat="42.94473" lon="2.37457">
        <ele>358.1</ele>
        <time>2024-09-10T08:39:45.425Z</time>
      </trkpt>
      <trkpt lat="42.94469" lon="2.37453">
        <ele>358.2</ele>
        <time>2024-09-10T08:39:49.091Z</time>
      </trkpt>
      <trkpt lat="42.94466" lon="2.37449">
        <ele>358.4</ele>
        <time>2024-09-10T08:39:52.477Z</time>
      </trkpt>
      <trkpt lat="42.94461" lon="2.37443">
        <ele>358.9</ele>
        <time>2024-09-10T08:39:58.366Z</time>
      </trkpt>
      <trkpt lat="42.94455" lon="2.37439">
        <ele>359.7</ele>
        <time>2024-09-10T08:40:05.268Z</time>
      </trkpt>
      <trkpt lat="42.9445" lon="2.37438">
        <ele>360.3</ele>
        <time>2024-09-10T08:40:10.471Z</time>
      </trkpt>
      <trkpt lat="42.94451" lon="2.37434">
        <ele>360.6</ele>
        <time>2024-09-10T08:40:13.422Z</time>
        <extensions>
          <visugpx:TrkExtension xmlns:visugpx="https://www.visugpx.com/editgpx/">
            <visugpx:node>2</visugpx:node>
            </visugpx:TrkExtension>
        </extensions>
      </trkpt>
      <trkpt lat="42.9445" lon="2.37438">
        <ele>360.3</ele>
        <time>2024-09-10T08:40:15.302Z</time>
      </trkpt>
      <trkpt lat="42.94445" lon="2.37438">
        <ele>360.9</ele>
        <time>2024-09-10T08:40:20.474Z</time>
      </trkpt>
      <trkpt lat="42.9444" lon="2.37442">
        <ele>361.6</ele>
        <time>2024-09-10T08:40:26.484Z</time>
      </trkpt>
      <trkpt lat="42.94432" lon="2.37449">
        <ele>363.2</ele>
        <time>2024-09-10T08:40:38.227Z</time>
      </trkpt>
      <trkpt lat="42.94426" lon="2.37455">
        <ele>364.2</ele>
        <time>2024-09-10T08:40:46.331Z</time>
      </trkpt>
      <trkpt lat="42.94415" lon="2.37473">
        <ele>364.5</ele>
        <time>2024-09-10T08:40:58.916Z</time>
      </trkpt>
      <trkpt lat="42.94398" lon="2.37505">
        <ele>367.5</ele>
        <time>2024-09-10T08:41:27.170Z</time>
      </trkpt>
      <trkpt lat="42.94385" lon="2.37531">
        <ele>369.7</ele>
        <time>2024-09-10T08:41:49.036Z</time>
      </trkpt>
      <trkpt lat="42.94378" lon="2.37544">
        <ele>370.6</ele>
        <time>2024-09-10T08:41:59.528Z</time>
      </trkpt>
      <trkpt lat="42.94366" lon="2.37561">
        <ele>372.6</ele>
        <time>2024-09-10T08:42:17.136Z</time>
      </trkpt>
      <trkpt lat="42.94351" lon="2.37581">
        <ele>376.1</ele>
        <time>2024-09-10T08:42:42.905Z</time>
      </trkpt>
      <trkpt lat="42.94343" lon="2.37592">
        <ele>377.5</ele>
        <time>2024-09-10T08:42:54.787Z</time>
      </trkpt>
      <trkpt lat="42.94333" lon="2.37602">
        <ele>379.1</ele>
        <time>2024-09-10T08:43:08.032Z</time>
      </trkpt>
      <trkpt lat="42.94324" lon="2.37613">
        <ele>380.6</ele>
        <time>2024-09-10T08:43:20.713Z</time>
      </trkpt>
      <trkpt lat="42.94316" lon="2.37624">
        <ele>382.1</ele>
        <time>2024-09-10T08:43:32.979Z</time>
      </trkpt>
      <trkpt lat="42.94312" lon="2.37633">
        <ele>382.6</ele>
        <time>2024-09-10T08:43:39.569Z</time>
      </trkpt>
      <trkpt lat="42.94305" lon="2.37642">
        <ele>383.6</ele>
        <time>2024-09-10T08:43:48.965Z</time>
      </trkpt>
      <trkpt lat="42.94303" lon="2.37644">
        <ele>383.6</ele>
        <time>2024-09-10T08:43:50.686Z</time>
        <extensions>
          <visugpx:TrkExtension xmlns:visugpx="https://www.visugpx.com/editgpx/">
            <visugpx:node>3</visugpx:node>
            </visugpx:TrkExtension>
        </extensions>
      </trkpt>
      <trkpt lat="42.94298" lon="2.37649">
        <ele>383.6</ele>
        <time>2024-09-10T08:43:54.989Z</time>
      </trkpt>
      <trkpt lat="42.94293" lon="2.37653">
        <ele>383.8</ele>
        <time>2024-09-10T08:43:59.474Z</time>
      </trkpt>
      <trkpt lat="42.94288" lon="2.37656">
        <ele>384.2</ele>
        <time>2024-09-10T08:44:04.276Z</time>
      </trkpt>
      <trkpt lat="42.94281" lon="2.37657">
        <ele>385.2</ele>
        <time>2024-09-10T08:44:12.162Z</time>
      </trkpt>
      <trkpt lat="42.94274" lon="2.37657">
        <ele>385.9</ele>
        <time>2024-09-10T08:44:18.909Z</time>
      </trkpt>
      <trkpt lat="42.94268" lon="2.37657">
        <ele>386.2</ele>
        <time>2024-09-10T08:44:23.792Z</time>
      </trkpt>
      <trkpt lat="42.94262" lon="2.37655">
        <ele>386.6</ele>
        <time>2024-09-10T08:44:29.070Z</time>
      </trkpt>
      <trkpt lat="42.94257" lon="2.37653">
        <ele>387.1</ele>
        <time>2024-09-10T08:44:34.022Z</time>
      </trkpt>
      <trkpt lat="42.94252" lon="2.37647">
        <ele>388</ele>
        <time>2024-09-10T08:44:41.294Z</time>
      </trkpt>
      <trkpt lat="42.9425" lon="2.37643">
        <ele>388.6</ele>
        <time>2024-09-10T08:44:45.691Z</time>
      </trkpt>
      <trkpt lat="42.9425" lon="2.37639">
        <ele>389</ele>
        <time>2024-09-10T08:44:48.907Z</time>
      </trkpt>
      <trkpt lat="42.9425" lon="2.37634">
        <ele>389.7</ele>
        <time>2024-09-10T08:44:53.845Z</time>
      </trkpt>
      <trkpt lat="42.94254" lon="2.37627">
        <ele>390.4</ele>
        <time>2024-09-10T08:45:00.281Z</time>
      </trkpt>
      <trkpt lat="42.94267" lon="2.37609">
        <ele>391.5</ele>
        <time>2024-09-10T08:45:15.822Z</time>
      </trkpt>
      <trkpt lat="42.94283" lon="2.37587">
        <ele>393.1</ele>
        <time>2024-09-10T08:45:35.598Z</time>
      </trkpt>
      <trkpt lat="42.94287" lon="2.3758">
        <ele>393.4</ele>
        <time>2024-09-10T08:45:40.823Z</time>
      </trkpt>
      <trkpt lat="42.94291" lon="2.37572">
        <ele>393.9</ele>
        <time>2024-09-10T08:45:47.001Z</time>
      </trkpt>
      <trkpt lat="42.94295" lon="2.3756">
        <ele>395</ele>
        <time>2024-09-10T08:45:56.773Z</time>
      </trkpt>
      <trkpt lat="42.94307" lon="2.37522">
        <ele>395.6</ele>
        <time>2024-09-10T08:46:19.148Z</time>
      </trkpt>
      <trkpt lat="42.94315" lon="2.37496">
        <ele>396.6</ele>
        <time>2024-09-10T08:46:35.866Z</time>
      </trkpt>
      <trkpt lat="42.94317" lon="2.37488">
        <ele>396.4</ele>
        <time>2024-09-10T08:46:39.764Z</time>
      </trkpt>
      <trkpt lat="42.94318" lon="2.37482">
        <ele>396.6</ele>
        <time>2024-09-10T08:46:43.364Z</time>
      </trkpt>
      <trkpt lat="42.94319" lon="2.37476">
        <ele>396.8</ele>
        <time>2024-09-10T08:46:46.963Z</time>
      </trkpt>
      <trkpt lat="42.94319" lon="2.37471">
        <ele>397.2</ele>
        <time>2024-09-10T08:46:50.608Z</time>
      </trkpt>
      <trkpt lat="42.94318" lon="2.37468">
        <ele>397.7</ele>
        <time>2024-09-10T08:46:54.073Z</time>
      </trkpt>
      <trkpt lat="42.94318" lon="2.37465">
        <ele>397.9</ele>
        <time>2024-09-10T08:46:56.125Z</time>
      </trkpt>
      <trkpt lat="42.94315" lon="2.3746">
        <ele>398.9</ele>
        <time>2024-09-10T08:47:03.032Z</time>
      </trkpt>
      <trkpt lat="42.94307" lon="2.37452">
        <ele>400.7</ele>
        <time>2024-09-10T08:47:15.917Z</time>
      </trkpt>
      <trkpt lat="42.94296" lon="2.37443">
        <ele>401.7</ele>
        <time>2024-09-10T08:47:27.374Z</time>
      </trkpt>
      <trkpt lat="42.94285" lon="2.37431">
        <ele>402.4</ele>
        <time>2024-09-10T08:47:38.821Z</time>
      </trkpt>
      <trkpt lat="42.94278" lon="2.37423">
        <ele>403</ele>
        <time>2024-09-10T08:47:46.646Z</time>
      </trkpt>
      <trkpt lat="42.94275" lon="2.37416">
        <ele>403.2</ele>
        <time>2024-09-10T08:47:51.230Z</time>
      </trkpt>
      <trkpt lat="42.94272" lon="2.37412">
        <ele>403.3</ele>
        <time>2024-09-10T08:47:54.366Z</time>
        <extensions>
          <visugpx:TrkExtension xmlns:visugpx="https://www.visugpx.com/editgpx/">
            <visugpx:node>4</visugpx:node>
            </visugpx:TrkExtension>
        </extensions>
      </trkpt>
      <trkpt lat="42.94238" lon="2.37358">
        <ele>406.6</ele>
        <time>2024-09-10T08:48:38.708Z</time>
      </trkpt>
      <trkpt lat="42.94248" lon="2.37369">
        <ele>405.3</ele>
        <time>2024-09-10T08:48:46.509Z</time>
      </trkpt>
      <trkpt lat="42.94254" lon="2.37379">
        <ele>404.6</ele>
        <time>2024-09-10T08:48:52.259Z</time>
        <extensions>
          <visugpx:TrkExtension xmlns:visugpx="https://www.visugpx.com/editgpx/">
            <visugpx:node>1</visugpx:node>
            </visugpx:TrkExtension>
        </extensions>
      </trkpt>
      <trkpt lat="42.94237" lon="2.37361">
        <ele>406.9</ele>
        <time>2024-09-10T08:49:13.500Z</time>
      </trkpt>
      <trkpt lat="42.94177" lon="2.37458">
        <ele>414.4</ele>
        <time>2024-09-10T08:50:37.327Z</time>
      </trkpt>
      <trkpt lat="42.94102" lon="2.37553">
        <ele>416.8</ele>
        <time>2024-09-10T08:51:53.750Z</time>
      </trkpt>
      <trkpt lat="42.94096" lon="2.37573">
        <ele>417.1</ele>
        <time>2024-09-10T08:52:05.405Z</time>
      </trkpt>
      <trkpt lat="42.9409" lon="2.37678">
        <ele>419.7</ele>
        <time>2024-09-10T08:53:04.929Z</time>
      </trkpt>
      <trkpt lat="42.94083" lon="2.37712">
        <ele>419.8</ele>
        <time>2024-09-10T08:53:23.098Z</time>
      </trkpt>
      <trkpt lat="42.94073" lon="2.37687">
        <ele>422.6</ele>
        <time>2024-09-10T08:53:45.808Z</time>
      </trkpt>
      <trkpt lat="42.94065" lon="2.37642">
        <ele>424.9</ele>
        <time>2024-09-10T08:54:15.080Z</time>
      </trkpt>
      <trkpt lat="42.94059" lon="2.37636">
        <ele>426.3</ele>
        <time>2024-09-10T08:54:24.997Z</time>
      </trkpt>
      <trkpt lat="42.9405" lon="2.37641">
        <ele>427.9</ele>
        <time>2024-09-10T08:54:36.839Z</time>
      </trkpt>
      <trkpt lat="42.94025" lon="2.3773">
        <ele>431.7</ele>
        <time>2024-09-10T08:55:34.474Z</time>
      </trkpt>
      <trkpt lat="42.93985" lon="2.37801">
        <ele>438.5</ele>
        <time>2024-09-10T08:56:38.506Z</time>
      </trkpt>
      <trkpt lat="42.93978" lon="2.37816">
        <ele>439.7</ele>
        <time>2024-09-10T08:56:50.720Z</time>
      </trkpt>
      <trkpt lat="42.93972" lon="2.37855">
        <ele>442.6</ele>
        <time>2024-09-10T08:57:18.780Z</time>
      </trkpt>
      <trkpt lat="42.93967" lon="2.37864">
        <ele>443.3</ele>
        <time>2024-09-10T08:57:26.339Z</time>
      </trkpt>
      <trkpt lat="42.9396" lon="2.37862">
        <ele>445</ele>
        <time>2024-09-10T08:57:37.942Z</time>
      </trkpt>
      <trkpt lat="42.93956" lon="2.37854">
        <ele>446</ele>
        <time>2024-09-10T08:57:45.857Z</time>
        <extensions>
          <visugpx:TrkExtension xmlns:visugpx="https://www.visugpx.com/editgpx/">
            <visugpx:node>2</visugpx:node>
            </visugpx:TrkExtension>
        </extensions>
      </trkpt>
      <trkpt lat="42.93955" lon="2.37853">
        <ele>446.2</ele>
        <time>2024-09-10T08:57:47.349Z</time>
      </trkpt>
      <trkpt lat="42.93941" lon="2.37663">
        <ele>458.1</ele>
        <time>2024-09-10T08:59:55.336Z</time>
      </trkpt>
      <trkpt lat="42.93924" lon="2.37521">
        <ele>469.1</ele>
        <time>2024-09-10T09:01:38.445Z</time>
      </trkpt>
      <trkpt lat="42.93924" lon="2.37516">
        <ele>469.1</ele>
        <time>2024-09-10T09:01:40.987Z</time>
      </trkpt>
      <trkpt lat="42.93919" lon="2.37478">
        <ele>471.9</ele>
        <time>2024-09-10T09:02:08.140Z</time>
      </trkpt>
      <trkpt lat="42.93917" lon="2.37392">
        <ele>477.7</ele>
        <time>2024-09-10T09:03:07.205Z</time>
      </trkpt>
      <trkpt lat="42.93895" lon="2.37289">
        <ele>483.4</ele>
        <time>2024-09-10T09:04:16.114Z</time>
      </trkpt>
      <trkpt lat="42.93886" lon="2.37218">
        <ele>489.7</ele>
        <time>2024-09-10T09:05:10.566Z</time>
      </trkpt>
      <trkpt lat="42.93868" lon="2.36923">
        <ele>503.2</ele>
        <time>2024-09-10T09:08:14.255Z</time>
      </trkpt>
      <trkpt lat="42.93844" lon="2.36835">
        <ele>505.9</ele>
        <time>2024-09-10T09:09:08.290Z</time>
      </trkpt>
      <trkpt lat="42.9385" lon="2.36778">
        <ele>507.8</ele>
        <time>2024-09-10T09:09:42.054Z</time>
      </trkpt>
      <trkpt lat="42.93843" lon="2.36689">
        <ele>511.9</ele>
        <time>2024-09-10T09:10:37.649Z</time>
      </trkpt>
      <trkpt lat="42.93852" lon="2.36646">
        <ele>512.8</ele>
        <time>2024-09-10T09:11:02.427Z</time>
      </trkpt>
      <trkpt lat="42.93845" lon="2.36573">
        <ele>516.2</ele>
        <time>2024-09-10T09:11:48.232Z</time>
      </trkpt>
      <trkpt lat="42.93849" lon="2.36558">
        <ele>515.8</ele>
        <time>2024-09-10T09:11:55.552Z</time>
      </trkpt>
      <trkpt lat="42.93854" lon="2.36549">
        <ele>516.1</ele>
        <time>2024-09-10T09:12:01.990Z</time>
      </trkpt>
      <trkpt lat="42.93882" lon="2.3652">
        <ele>513.5</ele>
        <time>2024-09-10T09:12:23.340Z</time>
      </trkpt>
      <trkpt lat="42.93886" lon="2.36513">
        <ele>513.1</ele>
        <time>2024-09-10T09:12:27.290Z</time>
      </trkpt>
      <trkpt lat="42.93898" lon="2.36477">
        <ele>512.5</ele>
        <time>2024-09-10T09:12:46.171Z</time>
      </trkpt>
      <trkpt lat="42.93902" lon="2.36454">
        <ele>514.3</ele>
        <time>2024-09-10T09:13:03.086Z</time>
      </trkpt>
      <trkpt lat="42.93908" lon="2.36405">
        <ele>516.4</ele>
        <time>2024-09-10T09:13:33.452Z</time>
      </trkpt>
      <trkpt lat="42.93907" lon="2.3631">
        <ele>521.3</ele>
        <time>2024-09-10T09:14:34.037Z</time>
      </trkpt>
      <trkpt lat="42.93909" lon="2.36291">
        <ele>522</ele>
        <time>2024-09-10T09:14:45.468Z</time>
      </trkpt>
      <trkpt lat="42.93911" lon="2.36278">
        <ele>522.4</ele>
        <time>2024-09-10T09:14:53.157Z</time>
      </trkpt>
      <trkpt lat="42.93925" lon="2.36251">
        <ele>521.7</ele>
        <time>2024-09-10T09:15:08.569Z</time>
      </trkpt>
      <trkpt lat="42.93927" lon="2.36241">
        <ele>522</ele>
        <time>2024-09-10T09:15:14.539Z</time>
      </trkpt>
      <trkpt lat="42.93924" lon="2.36233">
        <ele>523.1</ele>
        <time>2024-09-10T09:15:22.634Z</time>
      </trkpt>
      <trkpt lat="42.93918" lon="2.36231">
        <ele>524.4</ele>
        <time>2024-09-10T09:15:31.619Z</time>
      </trkpt>
      <trkpt lat="42.93916" lon="2.36233">
        <ele>525</ele>
        <time>2024-09-10T09:15:35.712Z</time>
        <extensions>
          <visugpx:TrkExtension xmlns:visugpx="https://www.visugpx.com/editgpx/">
            <visugpx:node>3</visugpx:node>
            </visugpx:TrkExtension>
        </extensions>
      </trkpt>
      <trkpt lat="42.93918" lon="2.36231">
        <ele>524.4</ele>
        <time>2024-09-10T09:15:37.218Z</time>
      </trkpt>
      <trkpt lat="42.93912" lon="2.36236">
        <ele>527.3</ele>
        <time>2024-09-10T09:16:00.331Z</time>
      </trkpt>
      <trkpt lat="42.93892" lon="2.36295">
        <ele>529.3</ele>
        <time>2024-09-10T09:16:38.076Z</time>
      </trkpt>
      <trkpt lat="42.93889" lon="2.36308">
        <ele>529.9</ele>
        <time>2024-09-10T09:16:46.474Z</time>
      </trkpt>
      <trkpt lat="42.93885" lon="2.36361">
        <ele>531.8</ele>
        <time>2024-09-10T09:17:18.087Z</time>
      </trkpt>
      <trkpt lat="42.9388" lon="2.36386">
        <ele>534.5</ele>
        <time>2024-09-10T09:17:39.363Z</time>
      </trkpt>
      <trkpt lat="42.93862" lon="2.36445">
        <ele>536.5</ele>
        <time>2024-09-10T09:18:16.557Z</time>
      </trkpt>
      <trkpt lat="42.93842" lon="2.3649">
        <ele>540.6</ele>
        <time>2024-09-10T09:18:54.542Z</time>
      </trkpt>
      <trkpt lat="42.93831" lon="2.36511">
        <ele>541.1</ele>
        <time>2024-09-10T09:19:08.801Z</time>
      </trkpt>
      <trkpt lat="42.93804" lon="2.36548">
        <ele>545.6</ele>
        <time>2024-09-10T09:19:48.032Z</time>
      </trkpt>
      <trkpt lat="42.93796" lon="2.36569">
        <ele>546.9</ele>
        <time>2024-09-10T09:20:03.362Z</time>
      </trkpt>
      <trkpt lat="42.93791" lon="2.36589">
        <ele>547.5</ele>
        <time>2024-09-10T09:20:15.503Z</time>
      </trkpt>
      <trkpt lat="42.93788" lon="2.36625">
        <ele>547</ele>
        <time>2024-09-10T09:20:32.895Z</time>
      </trkpt>
      <trkpt lat="42.93752" lon="2.36771">
        <ele>556.6</ele>
        <time>2024-09-10T09:22:16.150Z</time>
      </trkpt>
      <trkpt lat="42.93747" lon="2.36796">
        <ele>558.6</ele>
        <time>2024-09-10T09:22:34.787Z</time>
      </trkpt>
      <trkpt lat="42.93742" lon="2.36869">
        <ele>561.9</ele>
        <time>2024-09-10T09:23:20.160Z</time>
      </trkpt>
      <trkpt lat="42.93747" lon="2.36969">
        <ele>566.2</ele>
        <time>2024-09-10T09:24:21.600Z</time>
      </trkpt>
      <trkpt lat="42.93742" lon="2.37034">
        <ele>569.3</ele>
        <time>2024-09-10T09:25:02.496Z</time>
      </trkpt>
      <trkpt lat="42.93734" lon="2.37135">
        <ele>573.1</ele>
        <time>2024-09-10T09:26:03.246Z</time>
      </trkpt>
      <trkpt lat="42.9373" lon="2.37154">
        <ele>573.7</ele>
        <time>2024-09-10T09:26:14.702Z</time>
      </trkpt>
      <trkpt lat="42.93711" lon="2.37202">
        <ele>579.2</ele>
        <time>2024-09-10T09:26:58.748Z</time>
      </trkpt>
      <trkpt lat="42.93703" lon="2.37234">
        <ele>580.2</ele>
        <time>2024-09-10T09:27:18.276Z</time>
      </trkpt>
      <trkpt lat="42.93691" lon="2.37317">
        <ele>583.2</ele>
        <time>2024-09-10T09:28:08.430Z</time>
      </trkpt>
      <trkpt lat="42.93681" lon="2.37421">
        <ele>588.2</ele>
        <time>2024-09-10T09:29:14.134Z</time>
      </trkpt>
      <trkpt lat="42.93631" lon="2.37631">
        <ele>602.2</ele>
        <time>2024-09-10T09:31:42.895Z</time>
      </trkpt>
      <trkpt lat="42.93587" lon="2.37795">
        <ele>610.2</ele>
        <time>2024-09-10T09:33:31.380Z</time>
      </trkpt>
      <trkpt lat="42.93566" lon="2.37846">
        <ele>616.5</ele>
        <time>2024-09-10T09:34:20.269Z</time>
      </trkpt>
      <trkpt lat="42.93548" lon="2.37914">
        <ele>620</ele>
        <time>2024-09-10T09:35:05.716Z</time>
      </trkpt>
      <trkpt lat="42.93543" lon="2.37925">
        <ele>620.8</ele>
        <time>2024-09-10T09:35:14.373Z</time>
      </trkpt>
      <trkpt lat="42.93532" lon="2.37939">
        <ele>621.5</ele>
        <time>2024-09-10T09:35:26.473Z</time>
      </trkpt>
      <trkpt lat="42.93485" lon="2.37986">
        <ele>625.1</ele>
        <time>2024-09-10T09:36:15.766Z</time>
      </trkpt>
      <trkpt lat="42.93482" lon="2.37998">
        <ele>624.1</ele>
        <time>2024-09-10T09:36:21.406Z</time>
      </trkpt>
      <trkpt lat="42.93486" lon="2.38059">
        <ele>628.9</ele>
        <time>2024-09-10T09:37:05.703Z</time>
      </trkpt>
      <trkpt lat="42.93502" lon="2.38109">
        <ele>629.8</ele>
        <time>2024-09-10T09:37:35.465Z</time>
      </trkpt>
      <trkpt lat="42.93503" lon="2.38139">
        <ele>631.7</ele>
        <time>2024-09-10T09:37:55.684Z</time>
      </trkpt>
      <trkpt lat="42.93495" lon="2.38197">
        <ele>635.1</ele>
        <time>2024-09-10T09:38:34.384Z</time>
      </trkpt>
      <trkpt lat="42.93481" lon="2.38236">
        <ele>637</ele>
        <time>2024-09-10T09:39:01.112Z</time>
      </trkpt>
      <trkpt lat="42.93475" lon="2.38266">
        <ele>638.9</ele>
        <time>2024-09-10T09:39:21.838Z</time>
      </trkpt>
      <trkpt lat="42.93471" lon="2.38401">
        <ele>644.5</ele>
        <time>2024-09-10T09:40:44.118Z</time>
      </trkpt>
      <trkpt lat="42.93447" lon="2.38543">
        <ele>650.7</ele>
        <time>2024-09-10T09:42:13.308Z</time>
      </trkpt>
      <trkpt lat="42.93438" lon="2.38629">
        <ele>653.9</ele>
        <time>2024-09-10T09:43:05.128Z</time>
      </trkpt>
      <trkpt lat="42.9344" lon="2.38682">
        <ele>656.1</ele>
        <time>2024-09-10T09:43:37.448Z</time>
      </trkpt>
      <trkpt lat="42.93448" lon="2.38741">
        <ele>657.4</ele>
        <time>2024-09-10T09:44:10.918Z</time>
      </trkpt>
      <trkpt lat="42.93456" lon="2.388">
        <ele>659.3</ele>
        <time>2024-09-10T09:44:45.894Z</time>
        <extensions>
          <visugpx:TrkExtension xmlns:visugpx="https://www.visugpx.com/editgpx/">
            <visugpx:node>4</visugpx:node>
            </visugpx:TrkExtension>
        </extensions>
      </trkpt>
      <trkpt lat="42.93457" lon="2.3881">
        <ele>659.5</ele>
        <time>2024-09-10T09:44:51.479Z</time>
      </trkpt>
      <trkpt lat="42.93458" lon="2.38825">
        <ele>659.7</ele>
        <time>2024-09-10T09:44:59.581Z</time>
      </trkpt>
      <trkpt lat="42.93456" lon="2.38839">
        <ele>660.9</ele>
        <time>2024-09-10T09:45:10.189Z</time>
      </trkpt>
      <trkpt lat="42.93449" lon="2.38863">
        <ele>663.1</ele>
        <time>2024-09-10T09:45:29.497Z</time>
      </trkpt>
      <trkpt lat="42.93431" lon="2.38912">
        <ele>665.2</ele>
        <time>2024-09-10T09:46:02.414Z</time>
      </trkpt>
      <trkpt lat="42.93418" lon="2.38937">
        <ele>666.9</ele>
        <time>2024-09-10T09:46:22.320Z</time>
      </trkpt>
      <trkpt lat="42.93408" lon="2.38954">
        <ele>667.1</ele>
        <time>2024-09-10T09:46:33.846Z</time>
      </trkpt>
      <trkpt lat="42.93384" lon="2.38978">
        <ele>669.3</ele>
        <time>2024-09-10T09:47:00.064Z</time>
      </trkpt>
      <trkpt lat="42.93377" lon="2.3899">
        <ele>669</ele>
        <time>2024-09-10T09:47:07.258Z</time>
      </trkpt>
      <trkpt lat="42.93368" lon="2.39015">
        <ele>668.9</ele>
        <time>2024-09-10T09:47:21.210Z</time>
      </trkpt>
      <trkpt lat="42.93344" lon="2.39121">
        <ele>673.9</ele>
        <time>2024-09-10T09:48:29.895Z</time>
      </trkpt>
      <trkpt lat="42.93336" lon="2.39191">
        <ele>674.3</ele>
        <time>2024-09-10T09:49:06.782Z</time>
      </trkpt>
      <trkpt lat="42.93329" lon="2.3921">
        <ele>674.5</ele>
        <time>2024-09-10T09:49:18.035Z</time>
      </trkpt>
      <trkpt lat="42.93318" lon="2.3923">
        <ele>674.6</ele>
        <time>2024-09-10T09:49:30.968Z</time>
      </trkpt>
      <trkpt lat="42.93303" lon="2.39251">
        <ele>675.2</ele>
        <time>2024-09-10T09:49:47.247Z</time>
      </trkpt>
      <trkpt lat="42.93289" lon="2.39259">
        <ele>675.1</ele>
        <time>2024-09-10T09:49:57.575Z</time>
      </trkpt>
      <trkpt lat="42.93277" lon="2.3926">
        <ele>677</ele>
        <time>2024-09-10T09:50:11.866Z</time>
      </trkpt>
      <trkpt lat="42.93257" lon="2.39253">
        <ele>679.7</ele>
        <time>2024-09-10T09:50:34.066Z</time>
      </trkpt>
      <trkpt lat="42.93255" lon="2.39253">
        <ele>679.6</ele>
        <time>2024-09-10T09:50:35.281Z</time>
        <extensions>
          <visugpx:TrkExtension xmlns:visugpx="https://www.visugpx.com/editgpx/">
            <visugpx:node>5</visugpx:node>
            </visugpx:TrkExtension>
        </extensions>
      </trkpt>
      <trkpt lat="42.93189" lon="2.39306">
        <ele>682.1</ele>
        <time>2024-09-10T09:51:34.188Z</time>
        <extensions>
          <visugpx:TrkExtension xmlns:visugpx="https://www.visugpx.com/editgpx/">
            <visugpx:node>6</visugpx:node>
            </visugpx:TrkExtension>
        </extensions>
      </trkpt>
      <trkpt lat="42.93192" lon="2.39298">
        <ele>682.5</ele>
        <time>2024-09-10T09:51:39.738Z</time>
      </trkpt>
      <trkpt lat="42.93193" lon="2.39293">
        <ele>683</ele>
        <time>2024-09-10T09:51:43.833Z</time>
      </trkpt>
      <trkpt lat="42.93193" lon="2.39289">
        <ele>683.5</ele>
        <time>2024-09-10T09:51:47.485Z</time>
      </trkpt>
      <trkpt lat="42.9319" lon="2.39283">
        <ele>684.4</ele>
        <time>2024-09-10T09:51:54.079Z</time>
      </trkpt>
      <trkpt lat="42.93183" lon="2.39277">
        <ele>685</ele>
        <time>2024-09-10T09:52:01.330Z</time>
      </trkpt>
      <trkpt lat="42.93174" lon="2.39274">
        <ele>684.9</ele>
        <time>2024-09-10T09:52:07.554Z</time>
      </trkpt>
      <trkpt lat="42.93157" lon="2.39274">
        <ele>684.2</ele>
        <time>2024-09-10T09:52:17.986Z</time>
      </trkpt>
      <trkpt lat="42.93144" lon="2.39273">
        <ele>683.3</ele>
        <time>2024-09-10T09:52:25.897Z</time>
      </trkpt>
      <trkpt lat="42.93119" lon="2.39266">
        <ele>681.2</ele>
        <time>2024-09-10T09:52:41.403Z</time>
      </trkpt>
      <trkpt lat="42.93104" lon="2.39259">
        <ele>679.1</ele>
        <time>2024-09-10T09:52:51.034Z</time>
      </trkpt>
      <trkpt lat="42.93093" lon="2.39256">
        <ele>678</ele>
        <time>2024-09-10T09:52:57.849Z</time>
      </trkpt>
      <trkpt lat="42.93081" lon="2.39253">
        <ele>676.5</ele>
        <time>2024-09-10T09:53:05.261Z</time>
      </trkpt>
      <trkpt lat="42.93067" lon="2.39256">
        <ele>675.4</ele>
        <time>2024-09-10T09:53:13.871Z</time>
      </trkpt>
      <trkpt lat="42.93055" lon="2.39262">
        <ele>675.3</ele>
        <time>2024-09-10T09:53:22.535Z</time>
      </trkpt>
      <trkpt lat="42.93044" lon="2.39273">
        <ele>674.9</ele>
        <time>2024-09-10T09:53:31.198Z</time>
      </trkpt>
      <trkpt lat="42.93026" lon="2.39302">
        <ele>675.6</ele>
        <time>2024-09-10T09:53:52.108Z</time>
      </trkpt>
      <trkpt lat="42.93" lon="2.39356">
        <ele>674.4</ele>
        <time>2024-09-10T09:54:22.536Z</time>
      </trkpt>
      <trkpt lat="42.92993" lon="2.3937">
        <ele>675.7</ele>
        <time>2024-09-10T09:54:34.699Z</time>
      </trkpt>
      <trkpt lat="42.9299" lon="2.39375">
        <ele>676.1</ele>
        <time>2024-09-10T09:54:39.023Z</time>
      </trkpt>
      <trkpt lat="42.92983" lon="2.39379">
        <ele>675.6</ele>
        <time>2024-09-10T09:54:43.634Z</time>
      </trkpt>
      <trkpt lat="42.92981" lon="2.39378">
        <ele>675.2</ele>
        <time>2024-09-10T09:54:44.928Z</time>
      </trkpt>
      <trkpt lat="42.92977" lon="2.39371">
        <ele>673.7</ele>
        <time>2024-09-10T09:54:48.878Z</time>
      </trkpt>
      <trkpt lat="42.92978" lon="2.39365">
        <ele>673.1</ele>
        <time>2024-09-10T09:54:51.615Z</time>
      </trkpt>
      <trkpt lat="42.9298" lon="2.39357">
        <ele>672.7</ele>
        <time>2024-09-10T09:54:55.376Z</time>
      </trkpt>
      <trkpt lat="42.92985" lon="2.39345">
        <ele>672.6</ele>
        <time>2024-09-10T09:55:02.186Z</time>
      </trkpt>
      <trkpt lat="42.9299" lon="2.39333">
        <ele>672</ele>
        <time>2024-09-10T09:55:08.329Z</time>
      </trkpt>
      <trkpt lat="42.93008" lon="2.39289">
        <ele>668</ele>
        <time>2024-09-10T09:55:30.751Z</time>
      </trkpt>
      <trkpt lat="42.93018" lon="2.39257">
        <ele>664.2</ele>
        <time>2024-09-10T09:55:46.229Z</time>
      </trkpt>
      <trkpt lat="42.93026" lon="2.39241">
        <ele>661.1</ele>
        <time>2024-09-10T09:55:54.848Z</time>
      </trkpt>
      <trkpt lat="42.93037" lon="2.39228">
        <ele>659.4</ele>
        <time>2024-09-10T09:56:03.686Z</time>
      </trkpt>
      <trkpt lat="42.93058" lon="2.39209">
        <ele>657.3</ele>
        <time>2024-09-10T09:56:18.991Z</time>
      </trkpt>
      <trkpt lat="42.93082" lon="2.3919">
        <ele>653.8</ele>
        <time>2024-09-10T09:56:35.845Z</time>
      </trkpt>
      <trkpt lat="42.93094" lon="2.39179">
        <ele>654.3</ele>
        <time>2024-09-10T09:56:47.034Z</time>
      </trkpt>
      <trkpt lat="42.93105" lon="2.39162">
        <ele>652.2</ele>
        <time>2024-09-10T09:56:57.127Z</time>
      </trkpt>
      <trkpt lat="42.93115" lon="2.39133">
        <ele>649.7</ele>
        <time>2024-09-10T09:57:11.387Z</time>
      </trkpt>
      <trkpt lat="42.93122" lon="2.39115">
        <ele>650.7</ele>
        <time>2024-09-10T09:57:24.236Z</time>
      </trkpt>
      <trkpt lat="42.93129" lon="2.39092">
        <ele>648.9</ele>
        <time>2024-09-10T09:57:35.316Z</time>
      </trkpt>
      <trkpt lat="42.93138" lon="2.39068">
        <ele>643.9</ele>
        <time>2024-09-10T09:57:47.312Z</time>
      </trkpt>
      <trkpt lat="42.93146" lon="2.3905">
        <ele>643.6</ele>
        <time>2024-09-10T09:57:57.402Z</time>
      </trkpt>
      <trkpt lat="42.93151" lon="2.39035">
        <ele>643.3</ele>
        <time>2024-09-10T09:58:05.173Z</time>
      </trkpt>
      <trkpt lat="42.93155" lon="2.39021">
        <ele>642.1</ele>
        <time>2024-09-10T09:58:11.858Z</time>
      </trkpt>
      <trkpt lat="42.93159" lon="2.39007">
        <ele>640.3</ele>
        <time>2024-09-10T09:58:18.543Z</time>
      </trkpt>
      <trkpt lat="42.93162" lon="2.38993">
        <ele>638</ele>
        <time>2024-09-10T09:58:25.033Z</time>
      </trkpt>
      <trkpt lat="42.93167" lon="2.38975">
        <ele>634.7</ele>
        <time>2024-09-10T09:58:33.597Z</time>
      </trkpt>
      <trkpt lat="42.93175" lon="2.38946">
        <ele>633.6</ele>
        <time>2024-09-10T09:58:47.383Z</time>
      </trkpt>
      <trkpt lat="42.93178" lon="2.38937">
        <ele>633.4</ele>
        <time>2024-09-10T09:58:52.007Z</time>
      </trkpt>
      <trkpt lat="42.93181" lon="2.38927">
        <ele>632.8</ele>
        <time>2024-09-10T09:58:56.815Z</time>
      </trkpt>
      <trkpt lat="42.93185" lon="2.38908">
        <ele>630.7</ele>
        <time>2024-09-10T09:59:05.609Z</time>
      </trkpt>
      <trkpt lat="42.93187" lon="2.38892">
        <ele>628.1</ele>
        <time>2024-09-10T09:59:12.830Z</time>
      </trkpt>
      <trkpt lat="42.9319" lon="2.38876">
        <ele>626.1</ele>
        <time>2024-09-10T09:59:20.177Z</time>
      </trkpt>
      <trkpt lat="42.93193" lon="2.38859">
        <ele>623.9</ele>
        <time>2024-09-10T09:59:27.956Z</time>
      </trkpt>
      <trkpt lat="42.93197" lon="2.3884">
        <ele>622.8</ele>
        <time>2024-09-10T09:59:36.751Z</time>
      </trkpt>
      <trkpt lat="42.932" lon="2.3883">
        <ele>622.7</ele>
        <time>2024-09-10T09:59:42.037Z</time>
      </trkpt>
      <trkpt lat="42.93204" lon="2.38821">
        <ele>622.7</ele>
        <time>2024-09-10T09:59:47.389Z</time>
      </trkpt>
      <trkpt lat="42.9321" lon="2.3881">
        <ele>622.3</ele>
        <time>2024-09-10T09:59:53.577Z</time>
      </trkpt>
      <trkpt lat="42.93213" lon="2.38801">
        <ele>621.2</ele>
        <time>2024-09-10T09:59:57.976Z</time>
      </trkpt>
      <trkpt lat="42.93217" lon="2.38791">
        <ele>620</ele>
        <time>2024-09-10T10:00:03.045Z</time>
      </trkpt>
      <trkpt lat="42.9322" lon="2.38773">
        <ele>617.1</ele>
        <time>2024-09-10T10:00:11.257Z</time>
      </trkpt>
      <trkpt lat="42.93224" lon="2.38751">
        <ele>615.1</ele>
        <time>2024-09-10T10:00:21.341Z</time>
      </trkpt>
      <trkpt lat="42.93229" lon="2.38713">
        <ele>615</ele>
        <time>2024-09-10T10:00:40.757Z</time>
      </trkpt>
      <trkpt lat="42.93235" lon="2.38671">
        <ele>612.7</ele>
        <time>2024-09-10T10:00:59.793Z</time>
      </trkpt>
      <trkpt lat="42.9324" lon="2.38635">
        <ele>609.5</ele>
        <time>2024-09-10T10:01:16.093Z</time>
      </trkpt>
      <trkpt lat="42.93242" lon="2.38622">
        <ele>608.2</ele>
        <time>2024-09-10T10:01:22.002Z</time>
      </trkpt>
      <trkpt lat="42.93245" lon="2.38612">
        <ele>607.1</ele>
        <time>2024-09-10T10:01:26.810Z</time>
      </trkpt>
      <trkpt lat="42.93249" lon="2.38591">
        <ele>604.9</ele>
        <time>2024-09-10T10:01:36.462Z</time>
      </trkpt>
      <trkpt lat="42.93252" lon="2.38578">
        <ele>604.8</ele>
        <time>2024-09-10T10:01:43.183Z</time>
      </trkpt>
      <trkpt lat="42.93252" lon="2.38569">
        <ele>604.1</ele>
        <time>2024-09-10T10:01:47.186Z</time>
      </trkpt>
      <trkpt lat="42.93252" lon="2.38561">
        <ele>603.5</ele>
        <time>2024-09-10T10:01:50.745Z</time>
      </trkpt>
      <trkpt lat="42.9325" lon="2.3855">
        <ele>602.6</ele>
        <time>2024-09-10T10:01:55.787Z</time>
      </trkpt>
      <trkpt lat="42.93244" lon="2.38535">
        <ele>603.7</ele>
        <time>2024-09-10T10:02:07.354Z</time>
      </trkpt>
      <trkpt lat="42.93239" lon="2.38512">
        <ele>603.8</ele>
        <time>2024-09-10T10:02:19.768Z</time>
      </trkpt>
      <trkpt lat="42.93234" lon="2.38494">
        <ele>602.5</ele>
        <time>2024-09-10T10:02:28.332Z</time>
      </trkpt>
      <trkpt lat="42.9323" lon="2.38476">
        <ele>601.1</ele>
        <time>2024-09-10T10:02:36.700Z</time>
      </trkpt>
      <trkpt lat="42.93224" lon="2.38456">
        <ele>598.1</ele>
        <time>2024-09-10T10:02:46.315Z</time>
      </trkpt>
      <trkpt lat="42.93213" lon="2.38429">
        <ele>597.5</ele>
        <time>2024-09-10T10:03:00.811Z</time>
      </trkpt>
      <trkpt lat="42.93208" lon="2.38416">
        <ele>596.5</ele>
        <time>2024-09-10T10:03:07.344Z</time>
      </trkpt>
      <trkpt lat="42.93202" lon="2.38404">
        <ele>595.3</ele>
        <time>2024-09-10T10:03:13.808Z</time>
      </trkpt>
      <trkpt lat="42.93193" lon="2.3839">
        <ele>593.2</ele>
        <time>2024-09-10T10:03:22.096Z</time>
      </trkpt>
      <trkpt lat="42.93182" lon="2.38371">
        <ele>595.5</ele>
        <time>2024-09-10T10:03:41.090Z</time>
      </trkpt>
      <trkpt lat="42.93171" lon="2.38351">
        <ele>592.6</ele>
        <time>2024-09-10T10:03:52.217Z</time>
      </trkpt>
      <trkpt lat="42.93164" lon="2.38335">
        <ele>591.1</ele>
        <time>2024-09-10T10:04:00.509Z</time>
      </trkpt>
      <trkpt lat="42.93157" lon="2.38318">
        <ele>592.4</ele>
        <time>2024-09-10T10:04:13.851Z</time>
      </trkpt>
      <trkpt lat="42.9315" lon="2.38303">
        <ele>590.7</ele>
        <time>2024-09-10T10:04:21.764Z</time>
      </trkpt>
      <trkpt lat="42.93141" lon="2.38289">
        <ele>588.2</ele>
        <time>2024-09-10T10:04:30.052Z</time>
      </trkpt>
      <trkpt lat="42.9313" lon="2.38275">
        <ele>587.8</ele>
        <time>2024-09-10T10:04:39.684Z</time>
      </trkpt>
      <trkpt lat="42.93121" lon="2.3826">
        <ele>587.9</ele>
        <time>2024-09-10T10:04:49.761Z</time>
      </trkpt>
      <trkpt lat="42.93113" lon="2.38245">
        <ele>586.8</ele>
        <time>2024-09-10T10:04:58.016Z</time>
      </trkpt>
      <trkpt lat="42.93103" lon="2.38232">
        <ele>587.1</ele>
        <time>2024-09-10T10:05:08.275Z</time>
      </trkpt>
      <trkpt lat="42.93095" lon="2.38225">
        <ele>585.6</ele>
        <time>2024-09-10T10:05:14.048Z</time>
      </trkpt>
      <trkpt lat="42.93086" lon="2.38218">
        <ele>583.7</ele>
        <time>2024-09-10T10:05:20.341Z</time>
      </trkpt>
      <trkpt lat="42.93078" lon="2.38209">
        <ele>583.7</ele>
        <time>2024-09-10T10:05:27.537Z</time>
      </trkpt>
      <trkpt lat="42.93066" lon="2.38195">
        <ele>582</ele>
        <time>2024-09-10T10:05:37.126Z</time>
      </trkpt>
      <trkpt lat="42.93055" lon="2.38181">
        <ele>581.4</ele>
        <time>2024-09-10T10:05:46.387Z</time>
      </trkpt>
      <trkpt lat="42.93045" lon="2.38168">
        <ele>581.3</ele>
        <time>2024-09-10T10:05:55.763Z</time>
      </trkpt>
      <trkpt lat="42.9303" lon="2.38155">
        <ele>580.3</ele>
        <time>2024-09-10T10:06:06.557Z</time>
      </trkpt>
      <trkpt lat="42.9302" lon="2.38145">
        <ele>580.3</ele>
        <time>2024-09-10T10:06:15.163Z</time>
      </trkpt>
      <trkpt lat="42.93005" lon="2.38134">
        <ele>578.5</ele>
        <time>2024-09-10T10:06:25.508Z</time>
      </trkpt>
      <trkpt lat="42.92991" lon="2.38123">
        <ele>577.6</ele>
        <time>2024-09-10T10:06:35.321Z</time>
      </trkpt>
      <trkpt lat="42.92978" lon="2.38111">
        <ele>574.9</ele>
        <time>2024-09-10T10:06:44.854Z</time>
      </trkpt>
      <trkpt lat="42.92953" lon="2.38089">
        <ele>574.5</ele>
        <time>2024-09-10T10:07:04.674Z</time>
      </trkpt>
      <trkpt lat="42.92946" lon="2.38083">
        <ele>572.6</ele>
        <time>2024-09-10T10:07:09.696Z</time>
      </trkpt>
      <trkpt lat="42.92938" lon="2.38075">
        <ele>573.4</ele>
        <time>2024-09-10T10:07:18.637Z</time>
      </trkpt>
      <trkpt lat="42.92932" lon="2.38068">
        <ele>573.4</ele>
        <time>2024-09-10T10:07:24.116Z</time>
      </trkpt>
      <trkpt lat="42.92927" lon="2.38059">
        <ele>572.6</ele>
        <time>2024-09-10T10:07:29.142Z</time>
      </trkpt>
      <trkpt lat="42.92922" lon="2.38049">
        <ele>571</ele>
        <time>2024-09-10T10:07:34.529Z</time>
      </trkpt>
      <trkpt lat="42.92919" lon="2.38039">
        <ele>569.6</ele>
        <time>2024-09-10T10:07:39.337Z</time>
      </trkpt>
      <trkpt lat="42.9291" lon="2.38043">
        <ele>568.9</ele>
        <time>2024-09-10T10:07:45.087Z</time>
      </trkpt>
      <trkpt lat="42.92907" lon="2.38045">
        <ele>569.2</ele>
        <time>2024-09-10T10:07:48.193Z</time>
      </trkpt>
      <trkpt lat="42.92905" lon="2.38046">
        <ele>569.4</ele>
        <time>2024-09-10T10:07:50.203Z</time>
        <extensions>
          <visugpx:TrkExtension xmlns:visugpx="https://www.visugpx.com/editgpx/">
            <visugpx:node>7</visugpx:node>
            </visugpx:TrkExtension>
        </extensions>
      </trkpt>
      <trkpt lat="42.92907" lon="2.38045">
        <ele>569.2</ele>
        <time>2024-09-10T10:07:51.497Z</time>
      </trkpt>
      <trkpt lat="42.9291" lon="2.38043">
        <ele>568.9</ele>
        <time>2024-09-10T10:07:53.526Z</time>
      </trkpt>
      <trkpt lat="42.92919" lon="2.38039">
        <ele>569.6</ele>
        <time>2024-09-10T10:08:01.868Z</time>
      </trkpt>
      <trkpt lat="42.92918" lon="2.38025">
        <ele>569</ele>
        <time>2024-09-10T10:08:08.126Z</time>
      </trkpt>
      <trkpt lat="42.92916" lon="2.38014">
        <ele>568.9</ele>
        <time>2024-09-10T10:08:13.680Z</time>
      </trkpt>
      <trkpt lat="42.92913" lon="2.37999">
        <ele>568.9</ele>
        <time>2024-09-10T10:08:21.585Z</time>
      </trkpt>
      <trkpt lat="42.92906" lon="2.37984">
        <ele>568.2</ele>
        <time>2024-09-10T10:08:29.499Z</time>
      </trkpt>
      <trkpt lat="42.92899" lon="2.3797">
        <ele>566.4</ele>
        <time>2024-09-10T10:08:37.040Z</time>
      </trkpt>
      <trkpt lat="42.92896" lon="2.37963">
        <ele>565.2</ele>
        <time>2024-09-10T10:08:40.649Z</time>
      </trkpt>
      <trkpt lat="42.92895" lon="2.37956">
        <ele>564.9</ele>
        <time>2024-09-10T10:08:43.821Z</time>
      </trkpt>
      <trkpt lat="42.92895" lon="2.37946">
        <ele>565.1</ele>
        <time>2024-09-10T10:08:49.360Z</time>
      </trkpt>
      <trkpt lat="42.92897" lon="2.37927">
        <ele>565.3</ele>
        <time>2024-09-10T10:08:59.560Z</time>
      </trkpt>
      <trkpt lat="42.92897" lon="2.37917">
        <ele>564.8</ele>
        <time>2024-09-10T10:09:04.009Z</time>
      </trkpt>
      <trkpt lat="42.92896" lon="2.37907">
        <ele>563.9</ele>
        <time>2024-09-10T10:09:08.499Z</time>
      </trkpt>
      <trkpt lat="42.92894" lon="2.37899">
        <ele>562.6</ele>
        <time>2024-09-10T10:09:12.259Z</time>
      </trkpt>
      <trkpt lat="42.92888" lon="2.37885">
        <ele>560.2</ele>
        <time>2024-09-10T10:09:19.476Z</time>
      </trkpt>
      <trkpt lat="42.92885" lon="2.37877">
        <ele>561.1</ele>
        <time>2024-09-10T10:09:26.708Z</time>
      </trkpt>
      <trkpt lat="42.92884" lon="2.3787">
        <ele>561.3</ele>
        <time>2024-09-10T10:09:30.799Z</time>
      </trkpt>
      <trkpt lat="42.92882" lon="2.37863">
        <ele>562</ele>
        <time>2024-09-10T10:09:36.640Z</time>
      </trkpt>
      <trkpt lat="42.92882" lon="2.37856">
        <ele>561.8</ele>
        <time>2024-09-10T10:09:39.805Z</time>
      </trkpt>
      <trkpt lat="42.92882" lon="2.37849">
        <ele>561.6</ele>
        <time>2024-09-10T10:09:42.970Z</time>
      </trkpt>
      <trkpt lat="42.92887" lon="2.37831">
        <ele>559.1</ele>
        <time>2024-09-10T10:09:51.535Z</time>
      </trkpt>
      <trkpt lat="42.92894" lon="2.37808">
        <ele>560.1</ele>
        <time>2024-09-10T10:10:06.616Z</time>
      </trkpt>
      <trkpt lat="42.92898" lon="2.37801">
        <ele>560.3</ele>
        <time>2024-09-10T10:10:11.588Z</time>
      </trkpt>
      <trkpt lat="42.92904" lon="2.37792">
        <ele>559.9</ele>
        <time>2024-09-10T10:10:17.002Z</time>
      </trkpt>
      <trkpt lat="42.92911" lon="2.37783">
        <ele>558.2</ele>
        <time>2024-09-10T10:10:22.844Z</time>
      </trkpt>
      <trkpt lat="42.92917" lon="2.37774">
        <ele>556.3</ele>
        <time>2024-09-10T10:10:28.258Z</time>
      </trkpt>
      <trkpt lat="42.92922" lon="2.37763">
        <ele>557.1</ele>
        <time>2024-09-10T10:10:36.916Z</time>
      </trkpt>
      <trkpt lat="42.92925" lon="2.37752">
        <ele>557.1</ele>
        <time>2024-09-10T10:10:42.884Z</time>
      </trkpt>
      <trkpt lat="42.9293" lon="2.37731">
        <ele>557.3</ele>
        <time>2024-09-10T10:10:54.550Z</time>
      </trkpt>
      <trkpt lat="42.92935" lon="2.37706">
        <ele>556.8</ele>
        <time>2024-09-10T10:11:06.716Z</time>
      </trkpt>
      <trkpt lat="42.92937" lon="2.37687">
        <ele>556.4</ele>
        <time>2024-09-10T10:11:15.670Z</time>
      </trkpt>
      <trkpt lat="42.9294" lon="2.37666">
        <ele>555.4</ele>
        <time>2024-09-10T10:11:25.188Z</time>
      </trkpt>
      <trkpt lat="42.92942" lon="2.3765">
        <ele>554.5</ele>
        <time>2024-09-10T10:11:32.409Z</time>
      </trkpt>
      <trkpt lat="42.9295" lon="2.37621">
        <ele>555.3</ele>
        <time>2024-09-10T10:11:50.014Z</time>
      </trkpt>
      <trkpt lat="42.92957" lon="2.37599">
        <ele>556.5</ele>
        <time>2024-09-10T10:12:05.204Z</time>
      </trkpt>
      <trkpt lat="42.92969" lon="2.37574">
        <ele>554.5</ele>
        <time>2024-09-10T10:12:18.502Z</time>
      </trkpt>
      <trkpt lat="42.92977" lon="2.37561">
        <ele>553.6</ele>
        <time>2024-09-10T10:12:26.057Z</time>
      </trkpt>
      <trkpt lat="42.92981" lon="2.37549">
        <ele>553.8</ele>
        <time>2024-09-10T10:12:33.208Z</time>
      </trkpt>
      <trkpt lat="42.92985" lon="2.37534">
        <ele>554.3</ele>
        <time>2024-09-10T10:12:42.499Z</time>
      </trkpt>
      <trkpt lat="42.9299" lon="2.3751">
        <ele>554.1</ele>
        <time>2024-09-10T10:12:54.768Z</time>
      </trkpt>
      <trkpt lat="42.92996" lon="2.3748">
        <ele>553.1</ele>
        <time>2024-09-10T10:13:08.630Z</time>
      </trkpt>
      <trkpt lat="42.93004" lon="2.37454">
        <ele>551.9</ele>
        <time>2024-09-10T10:13:21.176Z</time>
      </trkpt>
      <trkpt lat="42.93008" lon="2.37443">
        <ele>551.7</ele>
        <time>2024-09-10T10:13:27.012Z</time>
      </trkpt>
      <trkpt lat="42.93014" lon="2.37428">
        <ele>552</ele>
        <time>2024-09-10T10:13:36.378Z</time>
      </trkpt>
      <trkpt lat="42.93016" lon="2.37419">
        <ele>552.3</ele>
        <time>2024-09-10T10:13:41.867Z</time>
      </trkpt>
      <trkpt lat="42.93018" lon="2.37411">
        <ele>552.6</ele>
        <time>2024-09-10T10:13:46.879Z</time>
      </trkpt>
      <trkpt lat="42.93019" lon="2.37402">
        <ele>553.1</ele>
        <time>2024-09-10T10:13:52.775Z</time>
      </trkpt>
      <trkpt lat="42.93019" lon="2.37392">
        <ele>553.9</ele>
        <time>2024-09-10T10:14:00.065Z</time>
      </trkpt>
      <trkpt lat="42.93018" lon="2.37376">
        <ele>554.3</ele>
        <time>2024-09-10T10:14:09.151Z</time>
      </trkpt>
      <trkpt lat="42.93011" lon="2.37334">
        <ele>555.3</ele>
        <time>2024-09-10T10:14:33.343Z</time>
      </trkpt>
      <trkpt lat="42.93003" lon="2.37289">
        <ele>555.4</ele>
        <time>2024-09-10T10:14:57.101Z</time>
      </trkpt>
      <trkpt lat="42.92998" lon="2.3725">
        <ele>555.4</ele>
        <time>2024-09-10T10:15:17.231Z</time>
      </trkpt>
      <trkpt lat="42.92991" lon="2.37219">
        <ele>558.2</ele>
        <time>2024-09-10T10:15:41.615Z</time>
      </trkpt>
      <trkpt lat="42.92987" lon="2.37188">
        <ele>558.4</ele>
        <time>2024-09-10T10:15:58.054Z</time>
      </trkpt>
      <trkpt lat="42.92985" lon="2.37173">
        <ele>558.7</ele>
        <time>2024-09-10T10:16:06.486Z</time>
      </trkpt>
      <trkpt lat="42.92984" lon="2.37157">
        <ele>558.6</ele>
        <time>2024-09-10T10:16:14.440Z</time>
      </trkpt>
      <trkpt lat="42.92983" lon="2.37146">
        <ele>559.1</ele>
        <time>2024-09-10T10:16:21.304Z</time>
      </trkpt>
      <trkpt lat="42.92983" lon="2.37133">
        <ele>558.6</ele>
        <time>2024-09-10T10:16:27.087Z</time>
      </trkpt>
      <trkpt lat="42.92981" lon="2.37105">
        <ele>558.5</ele>
        <time>2024-09-10T10:16:41.179Z</time>
      </trkpt>
      <trkpt lat="42.92977" lon="2.37075">
        <ele>558.2</ele>
        <time>2024-09-10T10:16:56.059Z</time>
      </trkpt>
      <trkpt lat="42.92975" lon="2.37064">
        <ele>558.2</ele>
        <time>2024-09-10T10:17:01.822Z</time>
      </trkpt>
      <trkpt lat="42.92974" lon="2.37052">
        <ele>557.6</ele>
        <time>2024-09-10T10:17:07.194Z</time>
      </trkpt>
      <trkpt lat="42.92974" lon="2.37044">
        <ele>557.2</ele>
        <time>2024-09-10T10:17:10.753Z</time>
      </trkpt>
      <trkpt lat="42.92974" lon="2.37031">
        <ele>556.6</ele>
        <time>2024-09-10T10:17:16.536Z</time>
      </trkpt>
      <trkpt lat="42.92974" lon="2.37023">
        <ele>555.6</ele>
        <time>2024-09-10T10:17:20.095Z</time>
      </trkpt>
      <trkpt lat="42.92973" lon="2.37016">
        <ele>555.2</ele>
        <time>2024-09-10T10:17:23.268Z</time>
      </trkpt>
      <trkpt lat="42.92971" lon="2.3701">
        <ele>555.4</ele>
        <time>2024-09-10T10:17:27.089Z</time>
      </trkpt>
      <trkpt lat="42.92968" lon="2.37005">
        <ele>555.6</ele>
        <time>2024-09-10T10:17:30.845Z</time>
      </trkpt>
      <trkpt lat="42.92959" lon="2.36997">
        <ele>556</ele>
        <time>2024-09-10T10:17:39.230Z</time>
      </trkpt>
      <trkpt lat="42.92952" lon="2.3699">
        <ele>555</ele>
        <time>2024-09-10T10:17:44.501Z</time>
      </trkpt>
      <trkpt lat="42.92943" lon="2.3698">
        <ele>554.5</ele>
        <time>2024-09-10T10:17:51.581Z</time>
      </trkpt>
      <trkpt lat="42.92939" lon="2.36974">
        <ele>554.1</ele>
        <time>2024-09-10T10:17:55.191Z</time>
      </trkpt>
      <trkpt lat="42.92928" lon="2.36955">
        <ele>550.9</ele>
        <time>2024-09-10T10:18:05.966Z</time>
      </trkpt>
      <trkpt lat="42.92918" lon="2.36937">
        <ele>549.9</ele>
        <time>2024-09-10T10:18:16.018Z</time>
      </trkpt>
      <trkpt lat="42.92904" lon="2.36916">
        <ele>550.2</ele>
        <time>2024-09-10T10:18:31.119Z</time>
      </trkpt>
      <trkpt lat="42.92891" lon="2.36896">
        <ele>548.7</ele>
        <time>2024-09-10T10:18:43.017Z</time>
      </trkpt>
      <trkpt lat="42.92873" lon="2.36871">
        <ele>545.5</ele>
        <time>2024-09-10T10:18:58.615Z</time>
      </trkpt>
      <trkpt lat="42.9287" lon="2.36866">
        <ele>544.6</ele>
        <time>2024-09-10T10:19:01.491Z</time>
      </trkpt>
      <trkpt lat="42.92867" lon="2.36863">
        <ele>544.3</ele>
        <time>2024-09-10T10:19:03.750Z</time>
      </trkpt>
      <trkpt lat="42.92863" lon="2.36861">
        <ele>544.5</ele>
        <time>2024-09-10T10:19:07.182Z</time>
      </trkpt>
      <trkpt lat="42.92858" lon="2.3686">
        <ele>543.9</ele>
        <time>2024-09-10T10:19:10.253Z</time>
      </trkpt>
      <trkpt lat="42.92852" lon="2.36861">
        <ele>543</ele>
        <time>2024-09-10T10:19:13.925Z</time>
      </trkpt>
      <trkpt lat="42.92845" lon="2.36866">
        <ele>542.9</ele>
        <time>2024-09-10T10:19:19.202Z</time>
      </trkpt>
      <trkpt lat="42.92828" lon="2.36881">
        <ele>542.2</ele>
        <time>2024-09-10T10:19:31.865Z</time>
      </trkpt>
      <trkpt lat="42.92812" lon="2.36898">
        <ele>542</ele>
        <time>2024-09-10T10:19:45.523Z</time>
      </trkpt>
      <trkpt lat="42.92807" lon="2.36902">
        <ele>541.3</ele>
        <time>2024-09-10T10:19:49.044Z</time>
      </trkpt>
      <trkpt lat="42.928" lon="2.36906">
        <ele>541.3</ele>
        <time>2024-09-10T10:19:54.313Z</time>
      </trkpt>
      <trkpt lat="42.92795" lon="2.36908">
        <ele>541.2</ele>
        <time>2024-09-10T10:19:57.725Z</time>
      </trkpt>
      <trkpt lat="42.92791" lon="2.36909">
        <ele>541.1</ele>
        <time>2024-09-10T10:20:00.346Z</time>
      </trkpt>
      <trkpt lat="42.92786" lon="2.36908">
        <ele>540.2</ele>
        <time>2024-09-10T10:20:03.416Z</time>
      </trkpt>
      <trkpt lat="42.92776" lon="2.36903">
        <ele>537.4</ele>
        <time>2024-09-10T10:20:09.886Z</time>
      </trkpt>
      <trkpt lat="42.92768" lon="2.36901">
        <ele>536.1</ele>
        <time>2024-09-10T10:20:14.828Z</time>
      </trkpt>
      <trkpt lat="42.92763" lon="2.36901">
        <ele>535.6</ele>
        <time>2024-09-10T10:20:17.866Z</time>
      </trkpt>
      <trkpt lat="42.92757" lon="2.36902">
        <ele>535.4</ele>
        <time>2024-09-10T10:20:21.664Z</time>
      </trkpt>
      <trkpt lat="42.9274" lon="2.36912">
        <ele>537.5</ele>
        <time>2024-09-10T10:20:40.369Z</time>
      </trkpt>
      <trkpt lat="42.92736" lon="2.36913">
        <ele>537.7</ele>
        <time>2024-09-10T10:20:43.670Z</time>
      </trkpt>
      <trkpt lat="42.92733" lon="2.36913">
        <ele>537.7</ele>
        <time>2024-09-10T10:20:45.753Z</time>
      </trkpt>
      <trkpt lat="42.9273" lon="2.36913">
        <ele>537.6</ele>
        <time>2024-09-10T10:20:47.637Z</time>
      </trkpt>
      <trkpt lat="42.92727" lon="2.36912">
        <ele>537.4</ele>
        <time>2024-09-10T10:20:49.513Z</time>
      </trkpt>
      <trkpt lat="42.92724" lon="2.36907">
        <ele>536.6</ele>
        <time>2024-09-10T10:20:52.389Z</time>
      </trkpt>
      <trkpt lat="42.92721" lon="2.369">
        <ele>536.2</ele>
        <time>2024-09-10T10:20:55.997Z</time>
      </trkpt>
      <trkpt lat="42.92719" lon="2.36891">
        <ele>535.7</ele>
        <time>2024-09-10T10:21:00.181Z</time>
      </trkpt>
      <trkpt lat="42.92718" lon="2.36885">
        <ele>534.3</ele>
        <time>2024-09-10T10:21:02.919Z</time>
      </trkpt>
      <trkpt lat="42.92716" lon="2.36879">
        <ele>532.8</ele>
        <time>2024-09-10T10:21:05.852Z</time>
      </trkpt>
      <trkpt lat="42.92713" lon="2.36875">
        <ele>532.3</ele>
        <time>2024-09-10T10:21:08.399Z</time>
      </trkpt>
      <trkpt lat="42.92698" lon="2.36856">
        <ele>529.7</ele>
        <time>2024-09-10T10:21:20.829Z</time>
      </trkpt>
      <trkpt lat="42.92689" lon="2.36846">
        <ele>529.2</ele>
        <time>2024-09-10T10:21:27.909Z</time>
      </trkpt>
      <trkpt lat="42.92684" lon="2.3684">
        <ele>528.3</ele>
        <time>2024-09-10T10:21:31.954Z</time>
      </trkpt>
      <trkpt lat="42.9268" lon="2.36836">
        <ele>527.7</ele>
        <time>2024-09-10T10:21:34.966Z</time>
      </trkpt>
      <trkpt lat="42.92676" lon="2.36834">
        <ele>527.6</ele>
        <time>2024-09-10T10:21:37.720Z</time>
      </trkpt>
      <trkpt lat="42.9267" lon="2.36832">
        <ele>528.2</ele>
        <time>2024-09-10T10:21:43.614Z</time>
      </trkpt>
      <trkpt lat="42.92657" lon="2.36829">
        <ele>529.1</ele>
        <time>2024-09-10T10:21:55.014Z</time>
      </trkpt>
      <trkpt lat="42.92644" lon="2.36826">
        <ele>529.6</ele>
        <time>2024-09-10T10:22:05.332Z</time>
      </trkpt>
      <trkpt lat="42.92639" lon="2.36823">
        <ele>529.5</ele>
        <time>2024-09-10T10:22:08.918Z</time>
      </trkpt>
      <trkpt lat="42.92636" lon="2.36818">
        <ele>529</ele>
        <time>2024-09-10T10:22:11.794Z</time>
      </trkpt>
      <trkpt lat="42.92634" lon="2.36812">
        <ele>528.2</ele>
        <time>2024-09-10T10:22:14.727Z</time>
      </trkpt>
      <trkpt lat="42.92634" lon="2.36806">
        <ele>527.2</ele>
        <time>2024-09-10T10:22:17.396Z</time>
      </trkpt>
      <trkpt lat="42.92636" lon="2.368">
        <ele>528.1</ele>
        <time>2024-09-10T10:22:23.789Z</time>
      </trkpt>
      <trkpt lat="42.92638" lon="2.36793">
        <ele>529</ele>
        <time>2024-09-10T10:22:30.467Z</time>
      </trkpt>
      <trkpt lat="42.92641" lon="2.36788">
        <ele>529.4</ele>
        <time>2024-09-10T10:22:34.791Z</time>
      </trkpt>
      <trkpt lat="42.92644" lon="2.36784">
        <ele>529.7</ele>
        <time>2024-09-10T10:22:38.457Z</time>
      </trkpt>
      <trkpt lat="42.92648" lon="2.36782">
        <ele>529.7</ele>
        <time>2024-09-10T10:22:41.415Z</time>
      </trkpt>
      <trkpt lat="42.9265" lon="2.36782">
        <ele>529.6</ele>
        <time>2024-09-10T10:22:42.630Z</time>
      </trkpt>
      <trkpt lat="42.92653" lon="2.36782">
        <ele>529.4</ele>
        <time>2024-09-10T10:22:44.452Z</time>
      </trkpt>
      <trkpt lat="42.92659" lon="2.36784">
        <ele>528.7</ele>
        <time>2024-09-10T10:22:48.205Z</time>
      </trkpt>
      <trkpt lat="42.92667" lon="2.36787">
        <ele>527.7</ele>
        <time>2024-09-10T10:22:53.245Z</time>
      </trkpt>
      <trkpt lat="42.92671" lon="2.3679">
        <ele>527.9</ele>
        <time>2024-09-10T10:22:56.886Z</time>
      </trkpt>
      <trkpt lat="42.92684" lon="2.36799">
        <ele>527.1</ele>
        <time>2024-09-10T10:23:05.741Z</time>
      </trkpt>
      <trkpt lat="42.92691" lon="2.36805">
        <ele>525.2</ele>
        <time>2024-09-10T10:23:10.762Z</time>
      </trkpt>
      <trkpt lat="42.92698" lon="2.36812">
        <ele>525.8</ele>
        <time>2024-09-10T10:23:18.287Z</time>
      </trkpt>
      <trkpt lat="42.92701" lon="2.36817">
        <ele>526</ele>
        <time>2024-09-10T10:23:22.043Z</time>
      </trkpt>
      <trkpt lat="42.92716" lon="2.3683">
        <ele>525.1</ele>
        <time>2024-09-10T10:23:32.837Z</time>
      </trkpt>
      <trkpt lat="42.92727" lon="2.36843">
        <ele>523.8</ele>
        <time>2024-09-10T10:23:41.675Z</time>
      </trkpt>
      <trkpt lat="42.92731" lon="2.36851">
        <ele>523.4</ele>
        <time>2024-09-10T10:23:45.985Z</time>
      </trkpt>
      <trkpt lat="42.92734" lon="2.36853">
        <ele>523.1</ele>
        <time>2024-09-10T10:23:48.013Z</time>
      </trkpt>
      <trkpt lat="42.92736" lon="2.36855">
        <ele>522.8</ele>
        <time>2024-09-10T10:23:49.519Z</time>
      </trkpt>
      <trkpt lat="42.92743" lon="2.36858">
        <ele>522</ele>
        <time>2024-09-10T10:23:53.977Z</time>
      </trkpt>
      <trkpt lat="42.9275" lon="2.3686">
        <ele>521.1</ele>
        <time>2024-09-10T10:23:58.322Z</time>
      </trkpt>
      <trkpt lat="42.92756" lon="2.36859">
        <ele>520.9</ele>
        <time>2024-09-10T10:24:02.121Z</time>
      </trkpt>
      <trkpt lat="42.92763" lon="2.36856">
        <ele>520.6</ele>
        <time>2024-09-10T10:24:06.627Z</time>
      </trkpt>
      <trkpt lat="42.92771" lon="2.36853">
        <ele>519.8</ele>
        <time>2024-09-10T10:24:11.667Z</time>
      </trkpt>
      <trkpt lat="42.92779" lon="2.36848">
        <ele>518.8</ele>
        <time>2024-09-10T10:24:17.013Z</time>
      </trkpt>
      <trkpt lat="42.92803" lon="2.36825">
        <ele>517.3</ele>
        <time>2024-09-10T10:24:34.826Z</time>
      </trkpt>
      <trkpt lat="42.92813" lon="2.36812">
        <ele>517.1</ele>
        <time>2024-09-10T10:24:43.998Z</time>
      </trkpt>
      <trkpt lat="42.92819" lon="2.36802">
        <ele>516.4</ele>
        <time>2024-09-10T10:24:49.750Z</time>
      </trkpt>
      <trkpt lat="42.92826" lon="2.36791">
        <ele>515.3</ele>
        <time>2024-09-10T10:24:56.234Z</time>
      </trkpt>
      <trkpt lat="42.92832" lon="2.36784">
        <ele>512.9</ele>
        <time>2024-09-10T10:25:01.028Z</time>
      </trkpt>
      <trkpt lat="42.92839" lon="2.36782">
        <ele>511.4</ele>
        <time>2024-09-10T10:25:05.373Z</time>
      </trkpt>
      <trkpt lat="42.92846" lon="2.36783">
        <ele>511</ele>
        <time>2024-09-10T10:25:09.649Z</time>
      </trkpt>
      <trkpt lat="42.92851" lon="2.36784">
        <ele>510.9</ele>
        <time>2024-09-10T10:25:12.953Z</time>
      </trkpt>
      <trkpt lat="42.92874" lon="2.36786">
        <ele>509.6</ele>
        <time>2024-09-10T10:25:26.956Z</time>
      </trkpt>
      <trkpt lat="42.92889" lon="2.36788">
        <ele>509</ele>
        <time>2024-09-10T10:25:36.242Z</time>
      </trkpt>
      <trkpt lat="42.92897" lon="2.3679">
        <ele>507.6</ele>
        <time>2024-09-10T10:25:41.183Z</time>
      </trkpt>
      <trkpt lat="42.92903" lon="2.36793">
        <ele>506.8</ele>
        <time>2024-09-10T10:25:45.065Z</time>
      </trkpt>
      <trkpt lat="42.92908" lon="2.36797">
        <ele>506.3</ele>
        <time>2024-09-10T10:25:48.586Z</time>
      </trkpt>
      <trkpt lat="42.92915" lon="2.36805">
        <ele>505.6</ele>
        <time>2024-09-10T10:25:54.132Z</time>
      </trkpt>
      <trkpt lat="42.92923" lon="2.36817">
        <ele>507.2</ele>
        <time>2024-09-10T10:26:07.090Z</time>
      </trkpt>
      <trkpt lat="42.92932" lon="2.3683">
        <ele>507.8</ele>
        <time>2024-09-10T10:26:17.606Z</time>
      </trkpt>
      <trkpt lat="42.92941" lon="2.36842">
        <ele>506.8</ele>
        <time>2024-09-10T10:26:25.248Z</time>
      </trkpt>
      <trkpt lat="42.92948" lon="2.36848">
        <ele>505.5</ele>
        <time>2024-09-10T10:26:30.269Z</time>
      </trkpt>
      <trkpt lat="42.92955" lon="2.36852">
        <ele>504.8</ele>
        <time>2024-09-10T10:26:34.880Z</time>
      </trkpt>
      <trkpt lat="42.92959" lon="2.36853">
        <ele>504.1</ele>
        <time>2024-09-10T10:26:37.350Z</time>
      </trkpt>
      <trkpt lat="42.92962" lon="2.36853">
        <ele>503.6</ele>
        <time>2024-09-10T10:26:39.173Z</time>
      </trkpt>
      <trkpt lat="42.92966" lon="2.36853">
        <ele>502.9</ele>
        <time>2024-09-10T10:26:41.603Z</time>
      </trkpt>
      <trkpt lat="42.92972" lon="2.3685">
        <ele>501.6</ele>
        <time>2024-09-10T10:26:45.486Z</time>
      </trkpt>
      <trkpt lat="42.92976" lon="2.36845">
        <ele>503.7</ele>
        <time>2024-09-10T10:27:01.726Z</time>
      </trkpt>
      <trkpt lat="42.9298" lon="2.36839">
        <ele>505.7</ele>
        <time>2024-09-10T10:27:16.246Z</time>
      </trkpt>
      <trkpt lat="42.92983" lon="2.3683">
        <ele>506.5</ele>
        <time>2024-09-10T10:27:23.487Z</time>
      </trkpt>
      <trkpt lat="42.92985" lon="2.36822">
        <ele>506.6</ele>
        <time>2024-09-10T10:27:28.006Z</time>
      </trkpt>
      <trkpt lat="42.92984" lon="2.36816">
        <ele>505.4</ele>
        <time>2024-09-10T10:27:30.743Z</time>
      </trkpt>
      <trkpt lat="42.92983" lon="2.3681">
        <ele>504.4</ele>
        <time>2024-09-10T10:27:33.481Z</time>
      </trkpt>
      <trkpt lat="42.92981" lon="2.36804">
        <ele>503.5</ele>
        <time>2024-09-10T10:27:36.413Z</time>
      </trkpt>
      <trkpt lat="42.92975" lon="2.36798">
        <ele>502.4</ele>
        <time>2024-09-10T10:27:40.932Z</time>
      </trkpt>
      <trkpt lat="42.9297" lon="2.36793">
        <ele>502.1</ele>
        <time>2024-09-10T10:27:44.697Z</time>
      </trkpt>
      <trkpt lat="42.92966" lon="2.36789">
        <ele>502.1</ele>
        <time>2024-09-10T10:27:48.139Z</time>
      </trkpt>
      <trkpt lat="42.9296" lon="2.36784">
        <ele>501.6</ele>
        <time>2024-09-10T10:27:52.410Z</time>
      </trkpt>
      <trkpt lat="42.92956" lon="2.36779">
        <ele>500.9</ele>
        <time>2024-09-10T10:27:55.704Z</time>
      </trkpt>
      <trkpt lat="42.92953" lon="2.36775">
        <ele>500.2</ele>
        <time>2024-09-10T10:27:58.252Z</time>
      </trkpt>
      <trkpt lat="42.92951" lon="2.3677">
        <ele>499.8</ele>
        <time>2024-09-10T10:28:00.786Z</time>
      </trkpt>
      <trkpt lat="42.9295" lon="2.36764">
        <ele>499.5</ele>
        <time>2024-09-10T10:28:03.524Z</time>
      </trkpt>
      <trkpt lat="42.9295" lon="2.36758">
        <ele>499.5</ele>
        <time>2024-09-10T10:28:06.574Z</time>
      </trkpt>
      <trkpt lat="42.9295" lon="2.36752">
        <ele>499.6</ele>
        <time>2024-09-10T10:28:09.849Z</time>
      </trkpt>
      <trkpt lat="42.92954" lon="2.36734">
        <ele>499.5</ele>
        <time>2024-09-10T10:28:19.203Z</time>
      </trkpt>
      <trkpt lat="42.92958" lon="2.36714">
        <ele>499.1</ele>
        <time>2024-09-10T10:28:28.935Z</time>
      </trkpt>
      <trkpt lat="42.92966" lon="2.36687">
        <ele>497.9</ele>
        <time>2024-09-10T10:28:41.893Z</time>
      </trkpt>
      <trkpt lat="42.92969" lon="2.36675">
        <ele>496</ele>
        <time>2024-09-10T10:28:47.534Z</time>
      </trkpt>
      <trkpt lat="42.92974" lon="2.36647">
        <ele>493.6</ele>
        <time>2024-09-10T10:29:00.355Z</time>
      </trkpt>
      <trkpt lat="42.92979" lon="2.36624">
        <ele>494.1</ele>
        <time>2024-09-10T10:29:13.691Z</time>
      </trkpt>
      <trkpt lat="42.92982" lon="2.36605">
        <ele>493.5</ele>
        <time>2024-09-10T10:29:22.399Z</time>
      </trkpt>
      <trkpt lat="42.92994" lon="2.3657">
        <ele>492.7</ele>
        <time>2024-09-10T10:29:40.437Z</time>
      </trkpt>
      <trkpt lat="42.93001" lon="2.36549">
        <ele>489.9</ele>
        <time>2024-09-10T10:29:50.702Z</time>
      </trkpt>
      <trkpt lat="42.93007" lon="2.36532">
        <ele>490.2</ele>
        <time>2024-09-10T10:30:00.969Z</time>
      </trkpt>
      <trkpt lat="42.93016" lon="2.36516">
        <ele>490.7</ele>
        <time>2024-09-10T10:30:12.379Z</time>
      </trkpt>
      <trkpt lat="42.93024" lon="2.36502">
        <ele>488.7</ele>
        <time>2024-09-10T10:30:20.279Z</time>
      </trkpt>
      <trkpt lat="42.93033" lon="2.36489">
        <ele>489.4</ele>
        <time>2024-09-10T10:30:31.062Z</time>
      </trkpt>
      <trkpt lat="42.9304" lon="2.36477">
        <ele>490.4</ele>
        <time>2024-09-10T10:30:41.485Z</time>
      </trkpt>
      <trkpt lat="42.93043" lon="2.36467">
        <ele>489.9</ele>
        <time>2024-09-10T10:30:46.293Z</time>
      </trkpt>
      <trkpt lat="42.93044" lon="2.36458">
        <ele>489.3</ele>
        <time>2024-09-10T10:30:50.342Z</time>
      </trkpt>
      <trkpt lat="42.93046" lon="2.36451">
        <ele>488.8</ele>
        <time>2024-09-10T10:30:53.685Z</time>
      </trkpt>
      <trkpt lat="42.9305" lon="2.3644">
        <ele>487.9</ele>
        <time>2024-09-10T10:30:59.149Z</time>
      </trkpt>
      <trkpt lat="42.93056" lon="2.36425">
        <ele>486.4</ele>
        <time>2024-09-10T10:31:06.752Z</time>
      </trkpt>
      <trkpt lat="42.93064" lon="2.36411">
        <ele>488.8</ele>
        <time>2024-09-10T10:31:23.848Z</time>
      </trkpt>
      <trkpt lat="42.93066" lon="2.36401">
        <ele>489.6</ele>
        <time>2024-09-10T10:31:31.303Z</time>
      </trkpt>
      <trkpt lat="42.93068" lon="2.3639">
        <ele>490.6</ele>
        <time>2024-09-10T10:31:39.902Z</time>
      </trkpt>
      <trkpt lat="42.93068" lon="2.36379">
        <ele>489.9</ele>
        <time>2024-09-10T10:31:44.796Z</time>
      </trkpt>
      <trkpt lat="42.93066" lon="2.36367">
        <ele>488</ele>
        <time>2024-09-10T10:31:50.271Z</time>
      </trkpt>
      <trkpt lat="42.93066" lon="2.36358">
        <ele>487.5</ele>
        <time>2024-09-10T10:31:54.274Z</time>
      </trkpt>
      <trkpt lat="42.93066" lon="2.36347">
        <ele>487.2</ele>
        <time>2024-09-10T10:31:59.274Z</time>
      </trkpt>
      <trkpt lat="42.93068" lon="2.36338">
        <ele>487.7</ele>
        <time>2024-09-10T10:32:05.316Z</time>
      </trkpt>
      <trkpt lat="42.93072" lon="2.36327">
        <ele>487.9</ele>
        <time>2024-09-10T10:32:12.009Z</time>
      </trkpt>
      <trkpt lat="42.93084" lon="2.36306">
        <ele>484.5</ele>
        <time>2024-09-10T10:32:23.860Z</time>
      </trkpt>
      <trkpt lat="42.93102" lon="2.36286">
        <ele>487.1</ele>
        <time>2024-09-10T10:32:47.191Z</time>
      </trkpt>
      <trkpt lat="42.9311" lon="2.36275">
        <ele>485.4</ele>
        <time>2024-09-10T10:32:54.089Z</time>
      </trkpt>
      <trkpt lat="42.93117" lon="2.36264">
        <ele>487.7</ele>
        <time>2024-09-10T10:33:09.926Z</time>
      </trkpt>
      <trkpt lat="42.93123" lon="2.36249">
        <ele>488.6</ele>
        <time>2024-09-10T10:33:20.881Z</time>
      </trkpt>
      <trkpt lat="42.93126" lon="2.36236">
        <ele>488.8</ele>
        <time>2024-09-10T10:33:28.258Z</time>
      </trkpt>
      <trkpt lat="42.9313" lon="2.36217">
        <ele>487.9</ele>
        <time>2024-09-10T10:33:37.052Z</time>
      </trkpt>
      <trkpt lat="42.93133" lon="2.362">
        <ele>485.8</ele>
        <time>2024-09-10T10:33:44.831Z</time>
      </trkpt>
      <trkpt lat="42.93134" lon="2.36187">
        <ele>484.2</ele>
        <time>2024-09-10T10:33:50.646Z</time>
      </trkpt>
      <trkpt lat="42.93136" lon="2.36172">
        <ele>482.7</ele>
        <time>2024-09-10T10:33:57.429Z</time>
      </trkpt>
      <trkpt lat="42.93138" lon="2.3616">
        <ele>480.9</ele>
        <time>2024-09-10T10:34:02.904Z</time>
      </trkpt>
      <trkpt lat="42.93142" lon="2.36145">
        <ele>480</ele>
        <time>2024-09-10T10:34:10.005Z</time>
      </trkpt>
      <trkpt lat="42.93148" lon="2.36129">
        <ele>481.9</ele>
        <time>2024-09-10T10:34:24.877Z</time>
      </trkpt>
      <trkpt lat="42.93152" lon="2.36117">
        <ele>482.8</ele>
        <time>2024-09-10T10:34:33.965Z</time>
      </trkpt>
      <trkpt lat="42.93154" lon="2.36105">
        <ele>482.5</ele>
        <time>2024-09-10T10:34:39.624Z</time>
      </trkpt>
      <trkpt lat="42.93156" lon="2.36092">
        <ele>481.9</ele>
        <time>2024-09-10T10:34:45.534Z</time>
      </trkpt>
      <trkpt lat="42.93158" lon="2.36078">
        <ele>480.4</ele>
        <time>2024-09-10T10:34:51.879Z</time>
      </trkpt>
      <trkpt lat="42.93161" lon="2.36069">
        <ele>478.7</ele>
        <time>2024-09-10T10:34:56.278Z</time>
      </trkpt>
      <trkpt lat="42.93164" lon="2.36059">
        <ele>476.2</ele>
        <time>2024-09-10T10:35:01.086Z</time>
      </trkpt>
      <trkpt lat="42.93177" lon="2.36041">
        <ele>479.4</ele>
        <time>2024-09-10T10:35:24.357Z</time>
      </trkpt>
      <trkpt lat="42.93184" lon="2.36027">
        <ele>480.3</ele>
        <time>2024-09-10T10:35:35.244Z</time>
      </trkpt>
      <trkpt lat="42.93186" lon="2.36018">
        <ele>480.5</ele>
        <time>2024-09-10T10:35:40.482Z</time>
      </trkpt>
      <trkpt lat="42.93187" lon="2.36002">
        <ele>479.8</ele>
        <time>2024-09-10T10:35:47.625Z</time>
      </trkpt>
      <trkpt lat="42.93187" lon="2.35968">
        <ele>477</ele>
        <time>2024-09-10T10:36:02.750Z</time>
      </trkpt>
      <trkpt lat="42.93186" lon="2.35951">
        <ele>476.2</ele>
        <time>2024-09-10T10:36:10.337Z</time>
      </trkpt>
      <trkpt lat="42.93185" lon="2.35939">
        <ele>476</ele>
        <time>2024-09-10T10:36:16.069Z</time>
      </trkpt>
      <trkpt lat="42.93182" lon="2.35921">
        <ele>475.8</ele>
        <time>2024-09-10T10:36:25.041Z</time>
      </trkpt>
      <trkpt lat="42.93182" lon="2.35912">
        <ele>475.9</ele>
        <time>2024-09-10T10:36:29.837Z</time>
      </trkpt>
      <trkpt lat="42.93183" lon="2.35906">
        <ele>476.2</ele>
        <time>2024-09-10T10:36:33.711Z</time>
      </trkpt>
      <trkpt lat="42.93185" lon="2.35899">
        <ele>476.6</ele>
        <time>2024-09-10T10:36:38.540Z</time>
      </trkpt>
      <trkpt lat="42.93186" lon="2.35892">
        <ele>476.9</ele>
        <time>2024-09-10T10:36:42.895Z</time>
      </trkpt>
      <trkpt lat="42.93188" lon="2.35885">
        <ele>476.9</ele>
        <time>2024-09-10T10:36:46.715Z</time>
      </trkpt>
      <trkpt lat="42.93187" lon="2.35874">
        <ele>476.7</ele>
        <time>2024-09-10T10:36:51.945Z</time>
      </trkpt>
      <trkpt lat="42.93187" lon="2.35864">
        <ele>476.5</ele>
        <time>2024-09-10T10:36:56.626Z</time>
      </trkpt>
      <trkpt lat="42.93188" lon="2.35854">
        <ele>474.7</ele>
        <time>2024-09-10T10:37:01.115Z</time>
        <extensions>
          <visugpx:TrkExtension xmlns:visugpx="https://www.visugpx.com/editgpx/">
            <visugpx:node>8</visugpx:node>
            </visugpx:TrkExtension>
        </extensions>
      </trkpt>
      <trkpt lat="42.93188" lon="2.35853">
        <ele>474.5</ele>
        <time>2024-09-10T10:37:01.560Z</time>
      </trkpt>
      <trkpt lat="42.93189" lon="2.35846">
        <ele>472.6</ele>
        <time>2024-09-10T10:37:04.733Z</time>
      </trkpt>
      <trkpt lat="42.93193" lon="2.35842">
        <ele>468.8</ele>
        <time>2024-09-10T10:37:07.745Z</time>
      </trkpt>
      <trkpt lat="42.93196" lon="2.35837">
        <ele>467.1</ele>
        <time>2024-09-10T10:37:10.621Z</time>
      </trkpt>
      <trkpt lat="42.93203" lon="2.35833">
        <ele>470</ele>
        <time>2024-09-10T10:37:32.904Z</time>
      </trkpt>
      <trkpt lat="42.93207" lon="2.35829">
        <ele>472.5</ele>
        <time>2024-09-10T10:37:50.977Z</time>
      </trkpt>
      <trkpt lat="42.9321" lon="2.35822">
        <ele>473.6</ele>
        <time>2024-09-10T10:37:58.804Z</time>
      </trkpt>
      <trkpt lat="42.93212" lon="2.35816">
        <ele>473.7</ele>
        <time>2024-09-10T10:38:02.380Z</time>
      </trkpt>
      <trkpt lat="42.93213" lon="2.3581">
        <ele>473.1</ele>
        <time>2024-09-10T10:38:05.117Z</time>
      </trkpt>
      <trkpt lat="42.93215" lon="2.35792">
        <ele>471</ele>
        <time>2024-09-10T10:38:13.216Z</time>
      </trkpt>
      <trkpt lat="42.93216" lon="2.35783">
        <ele>469.5</ele>
        <time>2024-09-10T10:38:17.265Z</time>
      </trkpt>
      <trkpt lat="42.93222" lon="2.35771">
        <ele>464.4</ele>
        <time>2024-09-10T10:38:23.730Z</time>
      </trkpt>
      <trkpt lat="42.93231" lon="2.35758">
        <ele>467.9</ele>
        <time>2024-09-10T10:38:47.708Z</time>
      </trkpt>
      <trkpt lat="42.93252" lon="2.35727">
        <ele>461.7</ele>
        <time>2024-09-10T10:39:06.495Z</time>
      </trkpt>
      <trkpt lat="42.93258" lon="2.35716">
        <ele>463</ele>
        <time>2024-09-10T10:39:17.242Z</time>
      </trkpt>
      <trkpt lat="42.93262" lon="2.35709">
        <ele>464.5</ele>
        <time>2024-09-10T10:39:27.496Z</time>
      </trkpt>
      <trkpt lat="42.9327" lon="2.35688">
        <ele>464.3</ele>
        <time>2024-09-10T10:39:39.114Z</time>
      </trkpt>
      <trkpt lat="42.93278" lon="2.35668">
        <ele>460.7</ele>
        <time>2024-09-10T10:39:49.252Z</time>
      </trkpt>
      <trkpt lat="42.93284" lon="2.35656">
        <ele>462.2</ele>
        <time>2024-09-10T10:40:01.125Z</time>
      </trkpt>
      <trkpt lat="42.9329" lon="2.35648">
        <ele>462</ele>
        <time>2024-09-10T10:40:06.541Z</time>
      </trkpt>
      <trkpt lat="42.93301" lon="2.35637">
        <ele>459.5</ele>
        <time>2024-09-10T10:40:14.825Z</time>
      </trkpt>
      <trkpt lat="42.93312" lon="2.35628">
        <ele>461.6</ele>
        <time>2024-09-10T10:40:30.399Z</time>
      </trkpt>
      <trkpt lat="42.93328" lon="2.3561">
        <ele>460.5</ele>
        <time>2024-09-10T10:40:42.993Z</time>
      </trkpt>
      <trkpt lat="42.93334" lon="2.35601">
        <ele>461.8</ele>
        <time>2024-09-10T10:40:53.119Z</time>
      </trkpt>
      <trkpt lat="42.93336" lon="2.35593">
        <ele>462.3</ele>
        <time>2024-09-10T10:40:58.702Z</time>
      </trkpt>
      <trkpt lat="42.93339" lon="2.35581">
        <ele>463.1</ele>
        <time>2024-09-10T10:41:07.233Z</time>
      </trkpt>
      <trkpt lat="42.93341" lon="2.35568">
        <ele>463.5</ele>
        <time>2024-09-10T10:41:14.923Z</time>
      </trkpt>
      <trkpt lat="42.93342" lon="2.35557">
        <ele>463.3</ele>
        <time>2024-09-10T10:41:20.152Z</time>
      </trkpt>
      <trkpt lat="42.93342" lon="2.35549">
        <ele>463.2</ele>
        <time>2024-09-10T10:41:24.013Z</time>
      </trkpt>
      <trkpt lat="42.9334" lon="2.35528">
        <ele>461.8</ele>
        <time>2024-09-10T10:41:33.434Z</time>
      </trkpt>
      <trkpt lat="42.93341" lon="2.3552">
        <ele>460.9</ele>
        <time>2024-09-10T10:41:37.044Z</time>
      </trkpt>
      <trkpt lat="42.93344" lon="2.35513">
        <ele>462</ele>
        <time>2024-09-10T10:41:44.871Z</time>
      </trkpt>
      <trkpt lat="42.93349" lon="2.35502">
        <ele>464</ele>
        <time>2024-09-10T10:41:58.689Z</time>
      </trkpt>
      <trkpt lat="42.93351" lon="2.35496">
        <ele>464.9</ele>
        <time>2024-09-10T10:42:05.081Z</time>
      </trkpt>
      <trkpt lat="42.93353" lon="2.35486">
        <ele>465.8</ele>
        <time>2024-09-10T10:42:12.892Z</time>
      </trkpt>
      <trkpt lat="42.93353" lon="2.35478">
        <ele>465.1</ele>
        <time>2024-09-10T10:42:16.451Z</time>
      </trkpt>
      <trkpt lat="42.93353" lon="2.35455">
        <ele>464.4</ele>
        <time>2024-09-10T10:42:26.772Z</time>
      </trkpt>
      <trkpt lat="42.93354" lon="2.3544">
        <ele>463.2</ele>
        <time>2024-09-10T10:42:33.472Z</time>
      </trkpt>
      <trkpt lat="42.93356" lon="2.35432">
        <ele>461.3</ele>
        <time>2024-09-10T10:42:37.233Z</time>
      </trkpt>
      <trkpt lat="42.93362" lon="2.35424">
        <ele>462</ele>
        <time>2024-09-10T10:42:44.866Z</time>
      </trkpt>
      <trkpt lat="42.93373" lon="2.35414">
        <ele>463.9</ele>
        <time>2024-09-10T10:42:59.766Z</time>
      </trkpt>
      <trkpt lat="42.93385" lon="2.35402">
        <ele>464.2</ele>
        <time>2024-09-10T10:43:10.763Z</time>
      </trkpt>
      <trkpt lat="42.9339" lon="2.35396">
        <ele>464</ele>
        <time>2024-09-10T10:43:14.983Z</time>
      </trkpt>
      <trkpt lat="42.93398" lon="2.35381">
        <ele>461.7</ele>
        <time>2024-09-10T10:43:23.238Z</time>
      </trkpt>
      <trkpt lat="42.93405" lon="2.35368">
        <ele>461.3</ele>
        <time>2024-09-10T10:43:30.646Z</time>
      </trkpt>
      <trkpt lat="42.93413" lon="2.35354">
        <ele>460.9</ele>
        <time>2024-09-10T10:43:38.874Z</time>
      </trkpt>
      <trkpt lat="42.9342" lon="2.35345">
        <ele>460.1</ele>
        <time>2024-09-10T10:43:44.715Z</time>
      </trkpt>
      <trkpt lat="42.93426" lon="2.35339">
        <ele>459.4</ele>
        <time>2024-09-10T10:43:49.233Z</time>
      </trkpt>
      <trkpt lat="42.93437" lon="2.35331">
        <ele>459.9</ele>
        <time>2024-09-10T10:43:59.055Z</time>
      </trkpt>
      <trkpt lat="42.93451" lon="2.35319">
        <ele>459.1</ele>
        <time>2024-09-10T10:44:09.097Z</time>
      </trkpt>
      <trkpt lat="42.93465" lon="2.35308">
        <ele>458</ele>
        <time>2024-09-10T10:44:18.910Z</time>
      </trkpt>
      <trkpt lat="42.93483" lon="2.35293">
        <ele>458.4</ele>
        <time>2024-09-10T10:44:34.443Z</time>
      </trkpt>
      <trkpt lat="42.93493" lon="2.35283">
        <ele>457.8</ele>
        <time>2024-09-10T10:44:41.973Z</time>
      </trkpt>
      <trkpt lat="42.935" lon="2.35274">
        <ele>456.8</ele>
        <time>2024-09-10T10:44:47.814Z</time>
      </trkpt>
      <trkpt lat="42.93506" lon="2.35264">
        <ele>457.7</ele>
        <time>2024-09-10T10:44:56.782Z</time>
      </trkpt>
      <trkpt lat="42.93513" lon="2.3525">
        <ele>458.4</ele>
        <time>2024-09-10T10:45:07.099Z</time>
      </trkpt>
      <trkpt lat="42.93519" lon="2.35236">
        <ele>457</ele>
        <time>2024-09-10T10:45:14.315Z</time>
      </trkpt>
      <trkpt lat="42.93524" lon="2.35225">
        <ele>455.7</ele>
        <time>2024-09-10T10:45:20.075Z</time>
      </trkpt>
      <trkpt lat="42.93533" lon="2.35213">
        <ele>457.5</ele>
        <time>2024-09-10T10:45:34.221Z</time>
      </trkpt>
      <trkpt lat="42.93543" lon="2.35192">
        <ele>457.7</ele>
        <time>2024-09-10T10:45:47.394Z</time>
      </trkpt>
      <trkpt lat="42.93549" lon="2.35175">
        <ele>456</ele>
        <time>2024-09-10T10:45:55.789Z</time>
      </trkpt>
      <trkpt lat="42.93557" lon="2.35153">
        <ele>454.7</ele>
        <time>2024-09-10T10:46:06.716Z</time>
      </trkpt>
      <trkpt lat="42.93569" lon="2.35122">
        <ele>455.4</ele>
        <time>2024-09-10T10:46:26.131Z</time>
      </trkpt>
      <trkpt lat="42.93577" lon="2.35104">
        <ele>455.1</ele>
        <time>2024-09-10T10:46:36.221Z</time>
      </trkpt>
      <trkpt lat="42.93584" lon="2.35086">
        <ele>452.4</ele>
        <time>2024-09-10T10:46:45.287Z</time>
      </trkpt>
      <trkpt lat="42.93588" lon="2.35079">
        <ele>451.9</ele>
        <time>2024-09-10T10:46:49.237Z</time>
      </trkpt>
      <trkpt lat="42.93592" lon="2.35074">
        <ele>451.7</ele>
        <time>2024-09-10T10:46:52.606Z</time>
      </trkpt>
      <trkpt lat="42.93596" lon="2.35069">
        <ele>451.1</ele>
        <time>2024-09-10T10:46:55.901Z</time>
      </trkpt>
      <trkpt lat="42.93601" lon="2.35066">
        <ele>451.4</ele>
        <time>2024-09-10T10:47:00.418Z</time>
      </trkpt>
      <trkpt lat="42.93608" lon="2.35063">
        <ele>451.9</ele>
        <time>2024-09-10T10:47:06.759Z</time>
      </trkpt>
      <trkpt lat="42.93615" lon="2.3506">
        <ele>452.7</ele>
        <time>2024-09-10T10:47:14.058Z</time>
      </trkpt>
      <trkpt lat="42.93622" lon="2.35055">
        <ele>453.2</ele>
        <time>2024-09-10T10:47:20.776Z</time>
      </trkpt>
      <trkpt lat="42.93627" lon="2.35051">
        <ele>453.8</ele>
        <time>2024-09-10T10:47:26.431Z</time>
      </trkpt>
      <trkpt lat="42.93631" lon="2.35046">
        <ele>453.5</ele>
        <time>2024-09-10T10:47:29.725Z</time>
      </trkpt>
      <trkpt lat="42.93634" lon="2.35041">
        <ele>452.6</ele>
        <time>2024-09-10T10:47:32.601Z</time>
      </trkpt>
      <trkpt lat="42.93638" lon="2.35033">
        <ele>451</ele>
        <time>2024-09-10T10:47:36.910Z</time>
      </trkpt>
      <trkpt lat="42.93641" lon="2.35024">
        <ele>450.8</ele>
        <time>2024-09-10T10:47:41.534Z</time>
      </trkpt>
      <trkpt lat="42.93643" lon="2.35015">
        <ele>451.1</ele>
        <time>2024-09-10T10:47:47.022Z</time>
      </trkpt>
      <trkpt lat="42.93647" lon="2.35002">
        <ele>451.6</ele>
        <time>2024-09-10T10:47:55.381Z</time>
      </trkpt>
      <trkpt lat="42.9365" lon="2.34987">
        <ele>450.9</ele>
        <time>2024-09-10T10:48:02.298Z</time>
      </trkpt>
      <trkpt lat="42.93654" lon="2.34971">
        <ele>450.6</ele>
        <time>2024-09-10T10:48:10.284Z</time>
      </trkpt>
      <trkpt lat="42.93661" lon="2.3495">
        <ele>449</ele>
        <time>2024-09-10T10:48:20.548Z</time>
      </trkpt>
      <trkpt lat="42.9367" lon="2.34924">
        <ele>448.3</ele>
        <time>2024-09-10T10:48:33.773Z</time>
      </trkpt>
      <trkpt lat="42.93677" lon="2.34905">
        <ele>446.5</ele>
        <time>2024-09-10T10:48:43.235Z</time>
      </trkpt>
      <trkpt lat="42.93684" lon="2.34893">
        <ele>445.5</ele>
        <time>2024-09-10T10:48:50.060Z</time>
      </trkpt>
      <trkpt lat="42.9369" lon="2.34885">
        <ele>445.3</ele>
        <time>2024-09-10T10:48:55.475Z</time>
      </trkpt>
      <trkpt lat="42.93697" lon="2.34878">
        <ele>445.3</ele>
        <time>2024-09-10T10:49:01.499Z</time>
      </trkpt>
      <trkpt lat="42.93702" lon="2.34874">
        <ele>444.8</ele>
        <time>2024-09-10T10:49:05.020Z</time>
      </trkpt>
      <trkpt lat="42.93709" lon="2.3487">
        <ele>444.6</ele>
        <time>2024-09-10T10:49:09.885Z</time>
      </trkpt>
      <trkpt lat="42.93717" lon="2.34866">
        <ele>444.4</ele>
        <time>2024-09-10T10:49:15.393Z</time>
      </trkpt>
      <trkpt lat="42.93726" lon="2.34863">
        <ele>444.2</ele>
        <time>2024-09-10T10:49:21.418Z</time>
      </trkpt>
      <trkpt lat="42.93726" lon="2.34863">
        <ele>444.2</ele>
        <time>2024-09-10T10:49:21.418Z</time>
        <extensions>
          <visugpx:TrkExtension xmlns:visugpx="https://www.visugpx.com/editgpx/">
            <visugpx:node>9</visugpx:node>
            </visugpx:TrkExtension>
        </extensions>
      </trkpt>
      <trkpt lat="42.93736" lon="2.3486">
        <ele>443.4</ele>
        <time>2024-09-10T10:49:27.638Z</time>
      </trkpt>
      <trkpt lat="42.93747" lon="2.34857">
        <ele>442.8</ele>
        <time>2024-09-10T10:49:34.454Z</time>
      </trkpt>
      <trkpt lat="42.93754" lon="2.34855">
        <ele>443</ele>
        <time>2024-09-10T10:49:39.874Z</time>
      </trkpt>
      <trkpt lat="42.93762" lon="2.34852">
        <ele>443.3</ele>
        <time>2024-09-10T10:49:46.330Z</time>
      </trkpt>
      <trkpt lat="42.9377" lon="2.34848">
        <ele>443.2</ele>
        <time>2024-09-10T10:49:52.037Z</time>
      </trkpt>
      <trkpt lat="42.93777" lon="2.34843">
        <ele>442.4</ele>
        <time>2024-09-10T10:49:56.836Z</time>
      </trkpt>
      <trkpt lat="42.93796" lon="2.34826">
        <ele>442.2</ele>
        <time>2024-09-10T10:50:12.188Z</time>
      </trkpt>
      <trkpt lat="42.9381" lon="2.34807">
        <ele>441.1</ele>
        <time>2024-09-10T10:50:24.179Z</time>
      </trkpt>
      <trkpt lat="42.93821" lon="2.34789">
        <ele>440.9</ele>
        <time>2024-09-10T10:50:35.681Z</time>
      </trkpt>
      <trkpt lat="42.93829" lon="2.34773">
        <ele>439.5</ele>
        <time>2024-09-10T10:50:44.300Z</time>
      </trkpt>
      <trkpt lat="42.93836" lon="2.34757">
        <ele>439.5</ele>
        <time>2024-09-10T10:50:53.775Z</time>
      </trkpt>
      <trkpt lat="42.93838" lon="2.3475">
        <ele>439</ele>
        <time>2024-09-10T10:50:57.117Z</time>
      </trkpt>
      <trkpt lat="42.93839" lon="2.3474">
        <ele>438</ele>
        <time>2024-09-10T10:51:01.606Z</time>
      </trkpt>
      <trkpt lat="42.93841" lon="2.3473">
        <ele>437.5</ele>
        <time>2024-09-10T10:51:06.217Z</time>
      </trkpt>
      <trkpt lat="42.93843" lon="2.34721">
        <ele>436.9</ele>
        <time>2024-09-10T10:51:10.401Z</time>
      </trkpt>
      <trkpt lat="42.93844" lon="2.34716">
        <ele>436</ele>
        <time>2024-09-10T10:51:12.707Z</time>
      </trkpt>
      <trkpt lat="42.93848" lon="2.3471">
        <ele>436.1</ele>
        <time>2024-09-10T10:51:17.054Z</time>
      </trkpt>
      <trkpt lat="42.93851" lon="2.34705">
        <ele>435.7</ele>
        <time>2024-09-10T10:51:19.929Z</time>
      </trkpt>
      <trkpt lat="42.93854" lon="2.34702">
        <ele>435.7</ele>
        <time>2024-09-10T10:51:22.511Z</time>
      </trkpt>
      <trkpt lat="42.93859" lon="2.34698">
        <ele>435.9</ele>
        <time>2024-09-10T10:51:26.996Z</time>
      </trkpt>
      <trkpt lat="42.93864" lon="2.34692">
        <ele>435.5</ele>
        <time>2024-09-10T10:51:31.039Z</time>
      </trkpt>
      <trkpt lat="42.93868" lon="2.34686">
        <ele>435.3</ele>
        <time>2024-09-10T10:51:34.766Z</time>
      </trkpt>
      <trkpt lat="42.93875" lon="2.34675">
        <ele>434.5</ele>
        <time>2024-09-10T10:51:41.249Z</time>
      </trkpt>
      <trkpt lat="42.93881" lon="2.34662">
        <ele>432.2</ele>
        <time>2024-09-10T10:51:48.085Z</time>
      </trkpt>
      <trkpt lat="42.93886" lon="2.34656">
        <ele>432</ele>
        <time>2024-09-10T10:51:52.305Z</time>
      </trkpt>
      <trkpt lat="42.9389" lon="2.34654">
        <ele>432.3</ele>
        <time>2024-09-10T10:51:56.015Z</time>
      </trkpt>
      <trkpt lat="42.93893" lon="2.34653">
        <ele>431.4</ele>
        <time>2024-09-10T10:51:57.891Z</time>
      </trkpt>
      <trkpt lat="42.93897" lon="2.34653">
        <ele>430.8</ele>
        <time>2024-09-10T10:52:00.322Z</time>
      </trkpt>
      <trkpt lat="42.93901" lon="2.34654">
        <ele>430.6</ele>
        <time>2024-09-10T10:52:02.792Z</time>
      </trkpt>
      <trkpt lat="42.93906" lon="2.34657">
        <ele>431.2</ele>
        <time>2024-09-10T10:52:08.241Z</time>
      </trkpt>
      <trkpt lat="42.93911" lon="2.34659">
        <ele>431.5</ele>
        <time>2024-09-10T10:52:12.589Z</time>
      </trkpt>
      <trkpt lat="42.93917" lon="2.34665">
        <ele>433.9</ele>
        <time>2024-09-10T10:52:29.745Z</time>
      </trkpt>
      <trkpt lat="42.93928" lon="2.34678">
        <ele>436.6</ele>
        <time>2024-09-10T10:52:48.947Z</time>
      </trkpt>
      <trkpt lat="42.93942" lon="2.34692">
        <ele>434</ele>
        <time>2024-09-10T10:52:59.489Z</time>
      </trkpt>
      <trkpt lat="42.9395" lon="2.347">
        <ele>434.2</ele>
        <time>2024-09-10T10:53:06.820Z</time>
      </trkpt>
      <trkpt lat="42.93955" lon="2.34705">
        <ele>435.4</ele>
        <time>2024-09-10T10:53:15.259Z</time>
      </trkpt>
      <trkpt lat="42.93963" lon="2.34709">
        <ele>435.1</ele>
        <time>2024-09-10T10:53:20.579Z</time>
      </trkpt>
      <trkpt lat="42.9397" lon="2.34711">
        <ele>433.9</ele>
        <time>2024-09-10T10:53:24.924Z</time>
      </trkpt>
      <trkpt lat="42.93979" lon="2.34713">
        <ele>432.8</ele>
        <time>2024-09-10T10:53:30.464Z</time>
      </trkpt>
      <trkpt lat="42.9399" lon="2.34716">
        <ele>431.8</ele>
        <time>2024-09-10T10:53:37.279Z</time>
      </trkpt>
      <trkpt lat="42.93999" lon="2.34719">
        <ele>430.9</ele>
        <time>2024-09-10T10:53:42.908Z</time>
      </trkpt>
      <trkpt lat="42.94004" lon="2.34721">
        <ele>430.9</ele>
        <time>2024-09-10T10:53:46.526Z</time>
      </trkpt>
      <trkpt lat="42.9401" lon="2.34724">
        <ele>431.2</ele>
        <time>2024-09-10T10:53:51.674Z</time>
      </trkpt>
      <trkpt lat="42.94017" lon="2.34727">
        <ele>431.1</ele>
        <time>2024-09-10T10:53:56.561Z</time>
      </trkpt>
      <trkpt lat="42.94022" lon="2.34732">
        <ele>431.7</ele>
        <time>2024-09-10T10:54:02.468Z</time>
      </trkpt>
      <trkpt lat="42.94027" lon="2.34736">
        <ele>431.7</ele>
        <time>2024-09-10T10:54:06.491Z</time>
      </trkpt>
      <trkpt lat="42.94035" lon="2.34745">
        <ele>431</ele>
        <time>2024-09-10T10:54:12.788Z</time>
      </trkpt>
      <trkpt lat="42.94045" lon="2.3476">
        <ele>432.3</ele>
        <time>2024-09-10T10:54:26.498Z</time>
      </trkpt>
      <trkpt lat="42.94054" lon="2.34772">
        <ele>432.8</ele>
        <time>2024-09-10T10:54:36.398Z</time>
      </trkpt>
      <trkpt lat="42.94059" lon="2.34775">
        <ele>433</ele>
        <time>2024-09-10T10:54:40.654Z</time>
      </trkpt>
      <trkpt lat="42.94062" lon="2.34777">
        <ele>433.5</ele>
        <time>2024-09-10T10:54:44.502Z</time>
      </trkpt>
      <trkpt lat="42.94068" lon="2.34776">
        <ele>432.9</ele>
        <time>2024-09-10T10:54:48.175Z</time>
      </trkpt>
      <trkpt lat="42.94075" lon="2.34775">
        <ele>432.3</ele>
        <time>2024-09-10T10:54:52.451Z</time>
      </trkpt>
      <trkpt lat="42.94083" lon="2.34775">
        <ele>432</ele>
        <time>2024-09-10T10:54:57.413Z</time>
      </trkpt>
      <trkpt lat="42.94091" lon="2.34775">
        <ele>431.2</ele>
        <time>2024-09-10T10:55:02.274Z</time>
      </trkpt>
      <trkpt lat="42.94102" lon="2.34779">
        <ele>431.4</ele>
        <time>2024-09-10T10:55:10.623Z</time>
      </trkpt>
      <trkpt lat="42.94113" lon="2.34783">
        <ele>431</ele>
        <time>2024-09-10T10:55:17.733Z</time>
      </trkpt>
      <trkpt lat="42.94118" lon="2.34787">
        <ele>430.4</ele>
        <time>2024-09-10T10:55:21.253Z</time>
      </trkpt>
      <trkpt lat="42.94121" lon="2.34794">
        <ele>430.9</ele>
        <time>2024-09-10T10:55:26.673Z</time>
      </trkpt>
      <trkpt lat="42.94123" lon="2.34802">
        <ele>431.7</ele>
        <time>2024-09-10T10:55:33.291Z</time>
      </trkpt>
      <trkpt lat="42.94125" lon="2.34807">
        <ele>431.6</ele>
        <time>2024-09-10T10:55:35.984Z</time>
      </trkpt>
      <trkpt lat="42.94127" lon="2.34823">
        <ele>432.2</ele>
        <time>2024-09-10T10:55:45.670Z</time>
      </trkpt>
      <trkpt lat="42.94127" lon="2.34828">
        <ele>432.6</ele>
        <time>2024-09-10T10:55:49.315Z</time>
        <extensions>
          <visugpx:TrkExtension xmlns:visugpx="https://www.visugpx.com/editgpx/">
            <visugpx:node>10</visugpx:node>
            </visugpx:TrkExtension>
        </extensions>
      </trkpt>
      <trkpt lat="42.94131" lon="2.34859">
        <ele>433</ele>
        <time>2024-09-10T10:56:06.204Z</time>
      </trkpt>
      <trkpt lat="42.94133" lon="2.34866">
        <ele>433</ele>
        <time>2024-09-10T10:56:10.024Z</time>
      </trkpt>
      <trkpt lat="42.94136" lon="2.34872">
        <ele>432.7</ele>
        <time>2024-09-10T10:56:13.255Z</time>
      </trkpt>
      <trkpt lat="42.9414" lon="2.34879">
        <ele>432.3</ele>
        <time>2024-09-10T10:56:17.205Z</time>
      </trkpt>
      <trkpt lat="42.94144" lon="2.34884">
        <ele>432.2</ele>
        <time>2024-09-10T10:56:20.764Z</time>
      </trkpt>
      <trkpt lat="42.94149" lon="2.34888">
        <ele>432</ele>
        <time>2024-09-10T10:56:24.390Z</time>
      </trkpt>
      <trkpt lat="42.94157" lon="2.34894">
        <ele>431.9</ele>
        <time>2024-09-10T10:56:30.519Z</time>
      </trkpt>
      <trkpt lat="42.94165" lon="2.34898">
        <ele>431.3</ele>
        <time>2024-09-10T10:56:35.695Z</time>
      </trkpt>
      <trkpt lat="42.94179" lon="2.34903">
        <ele>429.6</ele>
        <time>2024-09-10T10:56:44.487Z</time>
      </trkpt>
      <trkpt lat="42.94194" lon="2.34908">
        <ele>427.9</ele>
        <time>2024-09-10T10:56:53.868Z</time>
      </trkpt>
      <trkpt lat="42.94201" lon="2.3491">
        <ele>427.1</ele>
        <time>2024-09-10T10:56:58.213Z</time>
      </trkpt>
      <trkpt lat="42.94204" lon="2.34914">
        <ele>427.4</ele>
        <time>2024-09-10T10:57:01.878Z</time>
      </trkpt>
      <trkpt lat="42.94208" lon="2.34918">
        <ele>427.3</ele>
        <time>2024-09-10T10:57:05.116Z</time>
      </trkpt>
      <trkpt lat="42.94211" lon="2.34924">
        <ele>427.5</ele>
        <time>2024-09-10T10:57:09.274Z</time>
      </trkpt>
      <trkpt lat="42.94214" lon="2.3493">
        <ele>427.4</ele>
        <time>2024-09-10T10:57:12.762Z</time>
      </trkpt>
      <trkpt lat="42.94217" lon="2.34938">
        <ele>427.4</ele>
        <time>2024-09-10T10:57:17.331Z</time>
      </trkpt>
      <trkpt lat="42.94218" lon="2.34945">
        <ele>427.7</ele>
        <time>2024-09-10T10:57:21.686Z</time>
      </trkpt>
      <trkpt lat="42.94219" lon="2.34952">
        <ele>427.5</ele>
        <time>2024-09-10T10:57:24.917Z</time>
      </trkpt>
      <trkpt lat="42.94219" lon="2.34958">
        <ele>427.7</ele>
        <time>2024-09-10T10:57:28.440Z</time>
      </trkpt>
      <trkpt lat="42.9422" lon="2.34969">
        <ele>427.7</ele>
        <time>2024-09-10T10:57:34.074Z</time>
      </trkpt>
      <trkpt lat="42.94219" lon="2.34978">
        <ele>428.3</ele>
        <time>2024-09-10T10:57:40.279Z</time>
      </trkpt>
      <trkpt lat="42.94221" lon="2.34987">
        <ele>427.9</ele>
        <time>2024-09-10T10:57:44.462Z</time>
      </trkpt>
      <trkpt lat="42.94224" lon="2.34999">
        <ele>427.2</ele>
        <time>2024-09-10T10:57:50.102Z</time>
      </trkpt>
      <trkpt lat="42.94227" lon="2.35012">
        <ele>427.7</ele>
        <time>2024-09-10T10:57:58.226Z</time>
      </trkpt>
      <trkpt lat="42.94231" lon="2.35026">
        <ele>428</ele>
        <time>2024-09-10T10:58:06.547Z</time>
      </trkpt>
      <trkpt lat="42.94233" lon="2.35039">
        <ele>427.9</ele>
        <time>2024-09-10T10:58:13.090Z</time>
      </trkpt>
      <trkpt lat="42.94234" lon="2.35048">
        <ele>427.9</ele>
        <time>2024-09-10T10:58:17.717Z</time>
      </trkpt>
      <trkpt lat="42.94235" lon="2.35055">
        <ele>427.9</ele>
        <time>2024-09-10T10:58:21.342Z</time>
      </trkpt>
      <trkpt lat="42.94234" lon="2.35066">
        <ele>427.8</ele>
        <time>2024-09-10T10:58:26.769Z</time>
      </trkpt>
      <trkpt lat="42.94233" lon="2.35083">
        <ele>427.4</ele>
        <time>2024-09-10T10:58:34.639Z</time>
      </trkpt>
      <trkpt lat="42.94233" lon="2.35096">
        <ele>427.8</ele>
        <time>2024-09-10T10:58:42.186Z</time>
      </trkpt>
      <trkpt lat="42.94233" lon="2.35105">
        <ele>428.1</ele>
        <time>2024-09-10T10:58:47.470Z</time>
      </trkpt>
      <trkpt lat="42.94237" lon="2.35132">
        <ele>428.1</ele>
        <time>2024-09-10T10:59:01.473Z</time>
      </trkpt>
      <trkpt lat="42.94244" lon="2.35169">
        <ele>428</ele>
        <time>2024-09-10T10:59:20.686Z</time>
      </trkpt>
      <trkpt lat="42.94246" lon="2.3518">
        <ele>427.9</ele>
        <time>2024-09-10T10:59:26.239Z</time>
      </trkpt>
      <trkpt lat="42.94248" lon="2.35186">
        <ele>427.4</ele>
        <time>2024-09-10T10:59:29.171Z</time>
      </trkpt>
      <trkpt lat="42.94251" lon="2.35192">
        <ele>426.5</ele>
        <time>2024-09-10T10:59:32.403Z</time>
      </trkpt>
      <trkpt lat="42.94256" lon="2.35204">
        <ele>426.4</ele>
        <time>2024-09-10T10:59:39.213Z</time>
      </trkpt>
      <trkpt lat="42.94264" lon="2.35221">
        <ele>426.3</ele>
        <time>2024-09-10T10:59:49.275Z</time>
      </trkpt>
      <trkpt lat="42.94271" lon="2.35236">
        <ele>425.8</ele>
        <time>2024-09-10T10:59:57.331Z</time>
      </trkpt>
      <trkpt lat="42.94274" lon="2.35247">
        <ele>426</ele>
        <time>2024-09-10T11:00:03.748Z</time>
      </trkpt>
      <trkpt lat="42.94278" lon="2.35259">
        <ele>425.3</ele>
        <time>2024-09-10T11:00:09.612Z</time>
      </trkpt>
      <trkpt lat="42.94282" lon="2.3527">
        <ele>425</ele>
        <time>2024-09-10T11:00:15.258Z</time>
      </trkpt>
      <trkpt lat="42.94285" lon="2.35281">
        <ele>424.7</ele>
        <time>2024-09-10T11:00:20.629Z</time>
      </trkpt>
      <trkpt lat="42.9429" lon="2.353">
        <ele>423.8</ele>
        <time>2024-09-10T11:00:29.609Z</time>
      </trkpt>
      <trkpt lat="42.94292" lon="2.35311">
        <ele>423.6</ele>
        <time>2024-09-10T11:00:34.964Z</time>
      </trkpt>
      <trkpt lat="42.94299" lon="2.35333">
        <ele>423.2</ele>
        <time>2024-09-10T11:00:46.343Z</time>
      </trkpt>
      <trkpt lat="42.94307" lon="2.35354">
        <ele>422.6</ele>
        <time>2024-09-10T11:00:57.184Z</time>
      </trkpt>
      <trkpt lat="42.94313" lon="2.35373">
        <ele>422.8</ele>
        <time>2024-09-10T11:01:08.142Z</time>
      </trkpt>
      <trkpt lat="42.94322" lon="2.35407">
        <ele>422.9</ele>
        <time>2024-09-10T11:01:26.736Z</time>
      </trkpt>
      <trkpt lat="42.94329" lon="2.35438">
        <ele>422.8</ele>
        <time>2024-09-10T11:01:43.014Z</time>
      </trkpt>
      <trkpt lat="42.94332" lon="2.35446">
        <ele>422.4</ele>
        <time>2024-09-10T11:01:47.012Z</time>
      </trkpt>
      <trkpt lat="42.94339" lon="2.35469">
        <ele>423.2</ele>
        <time>2024-09-10T11:02:01.558Z</time>
      </trkpt>
      <trkpt lat="42.94344" lon="2.35485">
        <ele>423.7</ele>
        <time>2024-09-10T11:02:11.567Z</time>
      </trkpt>
      <trkpt lat="42.94347" lon="2.35498">
        <ele>423.9</ele>
        <time>2024-09-10T11:02:18.942Z</time>
      </trkpt>
      <trkpt lat="42.94348" lon="2.35507">
        <ele>423.8</ele>
        <time>2024-09-10T11:02:23.363Z</time>
      </trkpt>
      <trkpt lat="42.94349" lon="2.35517">
        <ele>423.5</ele>
        <time>2024-09-10T11:02:27.904Z</time>
      </trkpt>
      <trkpt lat="42.9435" lon="2.35527">
        <ele>423.2</ele>
        <time>2024-09-10T11:02:32.445Z</time>
      </trkpt>
      <trkpt lat="42.9435" lon="2.3554">
        <ele>422.8</ele>
        <time>2024-09-10T11:02:38.271Z</time>
      </trkpt>
      <trkpt lat="42.9435" lon="2.35561">
        <ele>421.9</ele>
        <time>2024-09-10T11:02:47.611Z</time>
      </trkpt>
      <trkpt lat="42.9435" lon="2.35576">
        <ele>420.3</ele>
        <time>2024-09-10T11:02:54.282Z</time>
      </trkpt>
      <trkpt lat="42.94351" lon="2.35599">
        <ele>419.4</ele>
        <time>2024-09-10T11:03:04.530Z</time>
      </trkpt>
      <trkpt lat="42.94355" lon="2.35636">
        <ele>417.1</ele>
        <time>2024-09-10T11:03:21.164Z</time>
      </trkpt>
      <trkpt lat="42.94359" lon="2.35674">
        <ele>414</ele>
        <time>2024-09-10T11:03:38.239Z</time>
      </trkpt>
      <trkpt lat="42.94359" lon="2.35683">
        <ele>413.3</ele>
        <time>2024-09-10T11:03:42.242Z</time>
      </trkpt>
      <trkpt lat="42.94358" lon="2.35687">
        <ele>413.2</ele>
        <time>2024-09-10T11:03:44.191Z</time>
      </trkpt>
      <trkpt lat="42.94355" lon="2.35693">
        <ele>413.4</ele>
        <time>2024-09-10T11:03:48.349Z</time>
      </trkpt>
      <trkpt lat="42.94351" lon="2.35699">
        <ele>413.1</ele>
        <time>2024-09-10T11:03:51.959Z</time>
      </trkpt>
      <trkpt lat="42.94346" lon="2.35704">
        <ele>413</ele>
        <time>2024-09-10T11:03:56.055Z</time>
      </trkpt>
      <trkpt lat="42.94342" lon="2.3571">
        <ele>412.6</ele>
        <time>2024-09-10T11:03:59.664Z</time>
      </trkpt>
      <trkpt lat="42.94338" lon="2.35717">
        <ele>412</ele>
        <time>2024-09-10T11:04:03.614Z</time>
      </trkpt>
      <trkpt lat="42.94336" lon="2.35723">
        <ele>411.3</ele>
        <time>2024-09-10T11:04:06.546Z</time>
      </trkpt>
      <trkpt lat="42.94335" lon="2.35733">
        <ele>411.1</ele>
        <time>2024-09-10T11:04:11.273Z</time>
      </trkpt>
      <trkpt lat="42.94335" lon="2.35741">
        <ele>410.8</ele>
        <time>2024-09-10T11:04:14.831Z</time>
      </trkpt>
      <trkpt lat="42.94337" lon="2.3575">
        <ele>409.7</ele>
        <time>2024-09-10T11:04:19.014Z</time>
      </trkpt>
      <trkpt lat="42.94339" lon="2.35762">
        <ele>409</ele>
        <time>2024-09-10T11:04:24.488Z</time>
      </trkpt>
      <trkpt lat="42.9434" lon="2.35777">
        <ele>408.8</ele>
        <time>2024-09-10T11:04:31.733Z</time>
      </trkpt>
      <trkpt lat="42.94341" lon="2.35793">
        <ele>408.1</ele>
        <time>2024-09-10T11:04:38.875Z</time>
      </trkpt>
      <trkpt lat="42.94342" lon="2.35805">
        <ele>407.5</ele>
        <time>2024-09-10T11:04:44.246Z</time>
      </trkpt>
      <trkpt lat="42.94344" lon="2.35812">
        <ele>407.5</ele>
        <time>2024-09-10T11:04:48.066Z</time>
      </trkpt>
      <trkpt lat="42.94348" lon="2.35818">
        <ele>406.9</ele>
        <time>2024-09-10T11:04:51.675Z</time>
      </trkpt>
      <trkpt lat="42.94352" lon="2.35826">
        <ele>406.6</ele>
        <time>2024-09-10T11:04:56.013Z</time>
      </trkpt>
      <trkpt lat="42.94356" lon="2.35836">
        <ele>406.4</ele>
        <time>2024-09-10T11:05:01.399Z</time>
      </trkpt>
      <trkpt lat="42.94359" lon="2.35846">
        <ele>406.1</ele>
        <time>2024-09-10T11:05:06.300Z</time>
      </trkpt>
      <trkpt lat="42.94364" lon="2.35862">
        <ele>405.3</ele>
        <time>2024-09-10T11:05:14.038Z</time>
      </trkpt>
      <trkpt lat="42.94368" lon="2.35873">
        <ele>404.8</ele>
        <time>2024-09-10T11:05:19.501Z</time>
      </trkpt>
      <trkpt lat="42.94374" lon="2.35884">
        <ele>404</ele>
        <time>2024-09-10T11:05:25.602Z</time>
      </trkpt>
      <trkpt lat="42.94383" lon="2.35898">
        <ele>403.1</ele>
        <time>2024-09-10T11:05:33.889Z</time>
      </trkpt>
      <trkpt lat="42.94391" lon="2.35912">
        <ele>402.2</ele>
        <time>2024-09-10T11:05:41.788Z</time>
      </trkpt>
      <trkpt lat="42.94398" lon="2.35925">
        <ele>401.5</ele>
        <time>2024-09-10T11:05:48.966Z</time>
      </trkpt>
      <trkpt lat="42.94404" lon="2.35939">
        <ele>400.9</ele>
        <time>2024-09-10T11:05:56.181Z</time>
      </trkpt>
      <trkpt lat="42.94407" lon="2.35948">
        <ele>400.4</ele>
        <time>2024-09-10T11:06:00.579Z</time>
      </trkpt>
      <trkpt lat="42.94409" lon="2.35956">
        <ele>399.6</ele>
        <time>2024-09-10T11:06:04.339Z</time>
      </trkpt>
      <trkpt lat="42.9441" lon="2.35964">
        <ele>399.1</ele>
        <time>2024-09-10T11:06:07.949Z</time>
      </trkpt>
      <trkpt lat="42.9441" lon="2.3597">
        <ele>399</ele>
        <time>2024-09-10T11:06:10.795Z</time>
      </trkpt>
      <trkpt lat="42.94409" lon="2.35976">
        <ele>398.7</ele>
        <time>2024-09-10T11:06:13.532Z</time>
      </trkpt>
      <trkpt lat="42.94407" lon="2.35985">
        <ele>397.9</ele>
        <time>2024-09-10T11:06:17.715Z</time>
      </trkpt>
      <trkpt lat="42.944" lon="2.36008">
        <ele>396.9</ele>
        <time>2024-09-10T11:06:28.794Z</time>
      </trkpt>
      <trkpt lat="42.94395" lon="2.36024">
        <ele>396.6</ele>
        <time>2024-09-10T11:06:37.026Z</time>
      </trkpt>
      <trkpt lat="42.94392" lon="2.36028">
        <ele>397.1</ele>
        <time>2024-09-10T11:06:41.351Z</time>
      </trkpt>
      <trkpt lat="42.94389" lon="2.36032">
        <ele>396.9</ele>
        <time>2024-09-10T11:06:43.898Z</time>
      </trkpt>
      <trkpt lat="42.94385" lon="2.36035">
        <ele>396.8</ele>
        <time>2024-09-10T11:06:46.863Z</time>
      </trkpt>
      <trkpt lat="42.94378" lon="2.36038">
        <ele>397.1</ele>
        <time>2024-09-10T11:06:52.659Z</time>
      </trkpt>
      <trkpt lat="42.94373" lon="2.36042">
        <ele>397</ele>
        <time>2024-09-10T11:06:56.477Z</time>
      </trkpt>
      <trkpt lat="42.94367" lon="2.36045">
        <ele>397.3</ele>
        <time>2024-09-10T11:07:01.625Z</time>
      </trkpt>
      <trkpt lat="42.94365" lon="2.36049">
        <ele>396.7</ele>
        <time>2024-09-10T11:07:03.780Z</time>
      </trkpt>
      <trkpt lat="42.94364" lon="2.36053">
        <ele>396</ele>
        <time>2024-09-10T11:07:05.660Z</time>
      </trkpt>
      <trkpt lat="42.94363" lon="2.36057">
        <ele>395.8</ele>
        <time>2024-09-10T11:07:07.540Z</time>
      </trkpt>
      <trkpt lat="42.94364" lon="2.36062">
        <ele>396</ele>
        <time>2024-09-10T11:07:10.655Z</time>
      </trkpt>
      <trkpt lat="42.94367" lon="2.36068">
        <ele>395.9</ele>
        <time>2024-09-10T11:07:14.143Z</time>
      </trkpt>
      <trkpt lat="42.94375" lon="2.36077">
        <ele>395.4</ele>
        <time>2024-09-10T11:07:20.440Z</time>
      </trkpt>
      <trkpt lat="42.94384" lon="2.36089">
        <ele>395.2</ele>
        <time>2024-09-10T11:07:28.760Z</time>
      </trkpt>
      <trkpt lat="42.94388" lon="2.36095">
        <ele>395</ele>
        <time>2024-09-10T11:07:32.487Z</time>
      </trkpt>
      <trkpt lat="42.9439" lon="2.36101">
        <ele>395</ele>
        <time>2024-09-10T11:07:35.838Z</time>
      </trkpt>
      <trkpt lat="42.94393" lon="2.36108">
        <ele>394.6</ele>
        <time>2024-09-10T11:07:39.445Z</time>
      </trkpt>
      <trkpt lat="42.94395" lon="2.36116">
        <ele>394.4</ele>
        <time>2024-09-10T11:07:43.343Z</time>
      </trkpt>
      <trkpt lat="42.94399" lon="2.36129">
        <ele>393.7</ele>
        <time>2024-09-10T11:07:49.615Z</time>
      </trkpt>
      <trkpt lat="42.94406" lon="2.36145">
        <ele>392.6</ele>
        <time>2024-09-10T11:07:57.905Z</time>
      </trkpt>
      <trkpt lat="42.94412" lon="2.36162">
        <ele>392.7</ele>
        <time>2024-09-10T11:08:07.715Z</time>
      </trkpt>
      <trkpt lat="42.94416" lon="2.36173">
        <ele>392.6</ele>
        <time>2024-09-10T11:08:13.750Z</time>
      </trkpt>
      <trkpt lat="42.94423" lon="2.36191">
        <ele>391.9</ele>
        <time>2024-09-10T11:08:22.815Z</time>
      </trkpt>
      <trkpt lat="42.94429" lon="2.36203">
        <ele>391.2</ele>
        <time>2024-09-10T11:08:29.278Z</time>
      </trkpt>
      <trkpt lat="42.94436" lon="2.36219">
        <ele>390.5</ele>
        <time>2024-09-10T11:08:37.569Z</time>
      </trkpt>
      <trkpt lat="42.9444" lon="2.36226">
        <ele>389.8</ele>
        <time>2024-09-10T11:08:41.518Z</time>
      </trkpt>
      <trkpt lat="42.94442" lon="2.36231">
        <ele>389.7</ele>
        <time>2024-09-10T11:08:44.211Z</time>
      </trkpt>
      <trkpt lat="42.94444" lon="2.36238">
        <ele>389.8</ele>
        <time>2024-09-10T11:08:48.253Z</time>
      </trkpt>
      <trkpt lat="42.94445" lon="2.36243">
        <ele>390.1</ele>
        <time>2024-09-10T11:08:51.656Z</time>
      </trkpt>
      <trkpt lat="42.94448" lon="2.36256">
        <ele>389.5</ele>
        <time>2024-09-10T11:08:57.718Z</time>
      </trkpt>
      <trkpt lat="42.94451" lon="2.36273">
        <ele>387.6</ele>
        <time>2024-09-10T11:09:05.496Z</time>
      </trkpt>
      <trkpt lat="42.94454" lon="2.36288">
        <ele>386.8</ele>
        <time>2024-09-10T11:09:12.412Z</time>
      </trkpt>
      <trkpt lat="42.94456" lon="2.36294">
        <ele>386.4</ele>
        <time>2024-09-10T11:09:15.344Z</time>
      </trkpt>
      <trkpt lat="42.94457" lon="2.36301">
        <ele>386.3</ele>
        <time>2024-09-10T11:09:18.764Z</time>
      </trkpt>
      <trkpt lat="42.94459" lon="2.36312">
        <ele>385.7</ele>
        <time>2024-09-10T11:09:23.805Z</time>
      </trkpt>
      <trkpt lat="42.9446" lon="2.36318">
        <ele>385.3</ele>
        <time>2024-09-10T11:09:26.542Z</time>
      </trkpt>
      <trkpt lat="42.9446" lon="2.36324">
        <ele>385.1</ele>
        <time>2024-09-10T11:09:29.210Z</time>
      </trkpt>
      <trkpt lat="42.9446" lon="2.36329">
        <ele>385</ele>
        <time>2024-09-10T11:09:31.550Z</time>
      </trkpt>
      <trkpt lat="42.94459" lon="2.36334">
        <ele>385.1</ele>
        <time>2024-09-10T11:09:34.411Z</time>
      </trkpt>
      <trkpt lat="42.94457" lon="2.3634">
        <ele>384.5</ele>
        <time>2024-09-10T11:09:37.343Z</time>
      </trkpt>
      <trkpt lat="42.94455" lon="2.36345">
        <ele>384.1</ele>
        <time>2024-09-10T11:09:39.877Z</time>
      </trkpt>
      <trkpt lat="42.94451" lon="2.36348">
        <ele>384.7</ele>
        <time>2024-09-10T11:09:44.796Z</time>
      </trkpt>
      <trkpt lat="42.94448" lon="2.36352">
        <ele>384.8</ele>
        <time>2024-09-10T11:09:47.933Z</time>
      </trkpt>
      <trkpt lat="42.94441" lon="2.36359">
        <ele>384.8</ele>
        <time>2024-09-10T11:09:53.956Z</time>
      </trkpt>
      <trkpt lat="42.94433" lon="2.36366">
        <ele>384.1</ele>
        <time>2024-09-10T11:09:59.729Z</time>
      </trkpt>
      <trkpt lat="42.9442" lon="2.36373">
        <ele>383.7</ele>
        <time>2024-09-10T11:10:08.627Z</time>
      </trkpt>
      <trkpt lat="42.94403" lon="2.36385">
        <ele>382.5</ele>
        <time>2024-09-10T11:10:20.253Z</time>
      </trkpt>
      <trkpt lat="42.94393" lon="2.36393">
        <ele>381.8</ele>
        <time>2024-09-10T11:10:27.294Z</time>
      </trkpt>
      <trkpt lat="42.94383" lon="2.36406">
        <ele>381</ele>
        <time>2024-09-10T11:10:35.681Z</time>
      </trkpt>
      <trkpt lat="42.94378" lon="2.36411">
        <ele>380.8</ele>
        <time>2024-09-10T11:10:39.585Z</time>
      </trkpt>
      <trkpt lat="42.94376" lon="2.36416">
        <ele>380</ele>
        <time>2024-09-10T11:10:42.119Z</time>
      </trkpt>
      <trkpt lat="42.94374" lon="2.36422">
        <ele>380</ele>
        <time>2024-09-10T11:10:45.470Z</time>
      </trkpt>
      <trkpt lat="42.94372" lon="2.36427">
        <ele>380.2</ele>
        <time>2024-09-10T11:10:48.842Z</time>
      </trkpt>
      <trkpt lat="42.94372" lon="2.36433">
        <ele>380.1</ele>
        <time>2024-09-10T11:10:51.688Z</time>
      </trkpt>
      <trkpt lat="42.94372" lon="2.3644">
        <ele>380</ele>
        <time>2024-09-10T11:10:55.041Z</time>
      </trkpt>
      <trkpt lat="42.94373" lon="2.36447">
        <ele>379.5</ele>
        <time>2024-09-10T11:10:58.213Z</time>
      </trkpt>
      <trkpt lat="42.94376" lon="2.36459">
        <ele>378.5</ele>
        <time>2024-09-10T11:11:03.853Z</time>
      </trkpt>
      <trkpt lat="42.94383" lon="2.36483">
        <ele>376.7</ele>
        <time>2024-09-10T11:11:15.343Z</time>
      </trkpt>
      <trkpt lat="42.94394" lon="2.36516">
        <ele>375.6</ele>
        <time>2024-09-10T11:11:31.619Z</time>
      </trkpt>
      <trkpt lat="42.94396" lon="2.36523">
        <ele>375.3</ele>
        <time>2024-09-10T11:11:34.961Z</time>
      </trkpt>
      <trkpt lat="42.94397" lon="2.3653">
        <ele>375.1</ele>
        <time>2024-09-10T11:11:38.192Z</time>
      </trkpt>
      <trkpt lat="42.94397" lon="2.36536">
        <ele>374.6</ele>
        <time>2024-09-10T11:11:40.861Z</time>
      </trkpt>
      <trkpt lat="42.94397" lon="2.36541">
        <ele>374.2</ele>
        <time>2024-09-10T11:11:43.085Z</time>
      </trkpt>
      <trkpt lat="42.94395" lon="2.36548">
        <ele>374</ele>
        <time>2024-09-10T11:11:46.508Z</time>
      </trkpt>
      <trkpt lat="42.94393" lon="2.36554">
        <ele>373.7</ele>
        <time>2024-09-10T11:11:49.440Z</time>
      </trkpt>
      <trkpt lat="42.94392" lon="2.36562">
        <ele>373.6</ele>
        <time>2024-09-10T11:11:53.359Z</time>
      </trkpt>
      <trkpt lat="42.94391" lon="2.36569">
        <ele>373.7</ele>
        <time>2024-09-10T11:11:57.207Z</time>
      </trkpt>
      <trkpt lat="42.94392" lon="2.36576">
        <ele>373.5</ele>
        <time>2024-09-10T11:12:00.438Z</time>
      </trkpt>
      <trkpt lat="42.94394" lon="2.36584">
        <ele>373.1</ele>
        <time>2024-09-10T11:12:04.198Z</time>
      </trkpt>
      <trkpt lat="42.94396" lon="2.3659">
        <ele>372.6</ele>
        <time>2024-09-10T11:12:07.130Z</time>
      </trkpt>
      <trkpt lat="42.944" lon="2.36596">
        <ele>371.9</ele>
        <time>2024-09-10T11:12:10.740Z</time>
      </trkpt>
      <trkpt lat="42.94405" lon="2.36604">
        <ele>371.2</ele>
        <time>2024-09-10T11:12:15.418Z</time>
      </trkpt>
      <trkpt lat="42.94418" lon="2.36616">
        <ele>370</ele>
        <time>2024-09-10T11:12:24.951Z</time>
      </trkpt>
      <trkpt lat="42.94448" lon="2.36645">
        <ele>369</ele>
        <time>2024-09-10T11:12:48.453Z</time>
      </trkpt>
      <trkpt lat="42.94471" lon="2.36668">
        <ele>368.1</ele>
        <time>2024-09-10T11:13:06.445Z</time>
      </trkpt>
      <trkpt lat="42.94482" lon="2.36677">
        <ele>367.6</ele>
        <time>2024-09-10T11:13:14.364Z</time>
      </trkpt>
      <trkpt lat="42.94488" lon="2.36679">
        <ele>367.4</ele>
        <time>2024-09-10T11:13:18.253Z</time>
      </trkpt>
      <trkpt lat="42.94493" lon="2.36681">
        <ele>367.3</ele>
        <time>2024-09-10T11:13:21.666Z</time>
      </trkpt>
      <trkpt lat="42.94501" lon="2.36683">
        <ele>367.2</ele>
        <time>2024-09-10T11:13:27.105Z</time>
        <extensions>
          <visugpx:TrkExtension xmlns:visugpx="https://www.visugpx.com/editgpx/">
            <visugpx:node>11</visugpx:node>
            </visugpx:TrkExtension>
        </extensions>
      </trkpt>
      <trkpt lat="42.94504" lon="2.36676">
        <ele>366.8</ele>
        <time>2024-09-10T11:13:30.713Z</time>
      </trkpt>
      <trkpt lat="42.94508" lon="2.36665">
        <ele>366.2</ele>
        <time>2024-09-10T11:13:36.175Z</time>
      </trkpt>
      <trkpt lat="42.94512" lon="2.36656">
        <ele>366</ele>
        <time>2024-09-10T11:13:41.122Z</time>
      </trkpt>
      <trkpt lat="42.94519" lon="2.36659">
        <ele>366.4</ele>
        <time>2024-09-10T11:13:47.183Z</time>
      </trkpt>
      <trkpt lat="42.94533" lon="2.36665">
        <ele>367</ele>
        <time>2024-09-10T11:13:58.776Z</time>
      </trkpt>
      <trkpt lat="42.94541" lon="2.3667">
        <ele>367.1</ele>
        <time>2024-09-10T11:14:05.104Z</time>
      </trkpt>
      <trkpt lat="42.94551" lon="2.36674">
        <ele>367.1</ele>
        <time>2024-09-10T11:14:12.339Z</time>
      </trkpt>
      <trkpt lat="42.94569" lon="2.36682">
        <ele>366</ele>
        <time>2024-09-10T11:14:23.840Z</time>
      </trkpt>
      <trkpt lat="42.94597" lon="2.36692">
        <ele>363.6</ele>
        <time>2024-09-10T11:14:41.424Z</time>
      </trkpt>
      <trkpt lat="42.9464" lon="2.36707">
        <ele>360.3</ele>
        <time>2024-09-10T11:15:08.388Z</time>
      </trkpt>
      <trkpt lat="42.94676" lon="2.36721">
        <ele>359.8</ele>
        <time>2024-09-10T11:15:33.340Z</time>
      </trkpt>
      <trkpt lat="42.94702" lon="2.3673">
        <ele>357.9</ele>
        <time>2024-09-10T11:15:49.636Z</time>
      </trkpt>
      <trkpt lat="42.9472" lon="2.36737">
        <ele>356.3</ele>
        <time>2024-09-10T11:16:01.007Z</time>
      </trkpt>
      <trkpt lat="42.94724" lon="2.36741">
        <ele>355.6</ele>
        <time>2024-09-10T11:16:04.019Z</time>
      </trkpt>
      <trkpt lat="42.94729" lon="2.36719">
        <ele>352.4</ele>
        <time>2024-09-10T11:16:14.264Z</time>
      </trkpt>
      <trkpt lat="42.94735" lon="2.36714">
        <ele>350.4</ele>
        <time>2024-09-10T11:16:18.534Z</time>
      </trkpt>
      <trkpt lat="42.94743" lon="2.36714">
        <ele>347.8</ele>
        <time>2024-09-10T11:16:23.395Z</time>
      </trkpt>
      <trkpt lat="42.9475" lon="2.36715">
        <ele>345.5</ele>
        <time>2024-09-10T11:16:27.671Z</time>
      </trkpt>
      <trkpt lat="42.9475" lon="2.36716">
        <ele>345.4</ele>
        <time>2024-09-10T11:16:28.116Z</time>
      </trkpt>
      <trkpt lat="42.94753" lon="2.36727">
        <ele>344.8</ele>
        <time>2024-09-10T11:16:33.336Z</time>
      </trkpt>
      <trkpt lat="42.94761" lon="2.36745">
        <ele>344.5</ele>
        <time>2024-09-10T11:16:43.425Z</time>
      </trkpt>
      <trkpt lat="42.94766" lon="2.36754">
        <ele>344.6</ele>
        <time>2024-09-10T11:16:49.387Z</time>
      </trkpt>
      <trkpt lat="42.94769" lon="2.3676">
        <ele>344.7</ele>
        <time>2024-09-10T11:16:53.303Z</time>
      </trkpt>
      <trkpt lat="42.9477" lon="2.36767">
        <ele>344.9</ele>
        <time>2024-09-10T11:16:57.393Z</time>
      </trkpt>
      <trkpt lat="42.94773" lon="2.36771">
        <ele>344.9</ele>
        <time>2024-09-10T11:17:00.304Z</time>
      </trkpt>
      <trkpt lat="42.94779" lon="2.36775">
        <ele>344.9</ele>
        <time>2024-09-10T11:17:04.940Z</time>
      </trkpt>
      <trkpt lat="42.94799" lon="2.36786">
        <ele>346</ele>
        <time>2024-09-10T11:17:22.546Z</time>
      </trkpt>
      <trkpt lat="42.94823" lon="2.36798">
        <ele>347.8</ele>
        <time>2024-09-10T11:17:44.806Z</time>
      </trkpt>
      <trkpt lat="42.94849" lon="2.36812">
        <ele>349.8</ele>
        <time>2024-09-10T11:18:09.241Z</time>
      </trkpt>
      <trkpt lat="42.94861" lon="2.3682">
        <ele>351</ele>
        <time>2024-09-10T11:18:21.666Z</time>
      </trkpt>
      <trkpt lat="42.9487" lon="2.36822">
        <ele>351.8</ele>
        <time>2024-09-10T11:18:30.089Z</time>
      </trkpt>
      <trkpt lat="42.9488" lon="2.36823">
        <ele>352.6</ele>
        <time>2024-09-10T11:18:39.103Z</time>
      </trkpt>
      <trkpt lat="42.94892" lon="2.3682">
        <ele>353.2</ele>
        <time>2024-09-10T11:18:49.006Z</time>
      </trkpt>
      <trkpt lat="42.94908" lon="2.36812">
        <ele>353.7</ele>
        <time>2024-09-10T11:19:01.976Z</time>
      </trkpt>
      <trkpt lat="42.9492" lon="2.36808">
        <ele>354.2</ele>
        <time>2024-09-10T11:19:11.723Z</time>
      </trkpt>
      <trkpt lat="42.94927" lon="2.36807">
        <ele>354.4</ele>
        <time>2024-09-10T11:19:17.065Z</time>
      </trkpt>
      <trkpt lat="42.94939" lon="2.36812">
        <ele>355</ele>
        <time>2024-09-10T11:19:27.203Z</time>
      </trkpt>
      <trkpt lat="42.94961" lon="2.36823">
        <ele>356.6</ele>
        <time>2024-09-10T11:19:47.463Z</time>
      </trkpt>
      <trkpt lat="42.94981" lon="2.36832">
        <ele>358.2</ele>
        <time>2024-09-10T11:20:06.150Z</time>
        <extensions>
          <visugpx:TrkExtension xmlns:visugpx="https://www.visugpx.com/editgpx/">
            <visugpx:node>12</visugpx:node>
            </visugpx:TrkExtension>
        </extensions>
      </trkpt>
      <trkpt lat="42.94986" lon="2.36834">
        <ele>358.6</ele>
        <time>2024-09-10T11:20:10.786Z</time>
      </trkpt>
      <trkpt lat="42.95002" lon="2.3684">
        <ele>359.9</ele>
        <time>2024-09-10T11:20:25.630Z</time>
      </trkpt>
      <trkpt lat="42.95025" lon="2.36847">
        <ele>360.5</ele>
        <time>2024-09-10T11:20:43.348Z</time>
      </trkpt>
      <trkpt lat="42.95041" lon="2.36853">
        <ele>361</ele>
        <time>2024-09-10T11:20:56.011Z</time>
      </trkpt>
      <trkpt lat="42.95058" lon="2.36861">
        <ele>361.7</ele>
        <time>2024-09-10T11:21:10.128Z</time>
      </trkpt>
      <trkpt lat="42.95073" lon="2.36869">
        <ele>361</ele>
        <time>2024-09-10T11:21:19.943Z</time>
      </trkpt>
      <trkpt lat="42.95088" lon="2.36875">
        <ele>360</ele>
        <time>2024-09-10T11:21:29.439Z</time>
      </trkpt>
      <trkpt lat="42.95098" lon="2.36884">
        <ele>359.5</ele>
        <time>2024-09-10T11:21:36.775Z</time>
      </trkpt>
      <trkpt lat="42.95105" lon="2.36892">
        <ele>359.6</ele>
        <time>2024-09-10T11:21:43.331Z</time>
      </trkpt>
      <trkpt lat="42.95111" lon="2.36903">
        <ele>360.6</ele>
        <time>2024-09-10T11:21:52.995Z</time>
      </trkpt>
      <trkpt lat="42.95118" lon="2.36919">
        <ele>361.4</ele>
        <time>2024-09-10T11:22:04.420Z</time>
      </trkpt>
      <trkpt lat="42.95127" lon="2.36935">
        <ele>361.4</ele>
        <time>2024-09-10T11:22:14.676Z</time>
      </trkpt>
      <trkpt lat="42.95135" lon="2.36946">
        <ele>361.3</ele>
        <time>2024-09-10T11:22:22.347Z</time>
      </trkpt>
      <trkpt lat="42.95141" lon="2.36951">
        <ele>361.2</ele>
        <time>2024-09-10T11:22:27.020Z</time>
      </trkpt>
      <trkpt lat="42.95149" lon="2.36958">
        <ele>361.7</ele>
        <time>2024-09-10T11:22:34.819Z</time>
      </trkpt>
      <trkpt lat="42.95157" lon="2.36969">
        <ele>362.8</ele>
        <time>2024-09-10T11:22:45.642Z</time>
      </trkpt>
      <trkpt lat="42.95165" lon="2.36981">
        <ele>363.2</ele>
        <time>2024-09-10T11:22:54.812Z</time>
      </trkpt>
      <trkpt lat="42.9517" lon="2.36991">
        <ele>362.9</ele>
        <time>2024-09-10T11:23:00.370Z</time>
      </trkpt>
      <trkpt lat="42.95171" lon="2.36998">
        <ele>363.1</ele>
        <time>2024-09-10T11:23:04.460Z</time>
      </trkpt>
      <trkpt lat="42.95172" lon="2.37008">
        <ele>362.5</ele>
        <time>2024-09-10T11:23:08.949Z</time>
      </trkpt>
      <trkpt lat="42.95172" lon="2.37025">
        <ele>361.8</ele>
        <time>2024-09-10T11:23:16.509Z</time>
      </trkpt>
      <trkpt lat="42.95172" lon="2.37037">
        <ele>361.4</ele>
        <time>2024-09-10T11:23:21.845Z</time>
      </trkpt>
      <trkpt lat="42.95171" lon="2.37062">
        <ele>360.7</ele>
        <time>2024-09-10T11:23:33.189Z</time>
      </trkpt>
      <trkpt lat="42.9517" lon="2.37088">
        <ele>359.4</ele>
        <time>2024-09-10T11:23:44.768Z</time>
      </trkpt>
      <trkpt lat="42.9517" lon="2.37121">
        <ele>357.6</ele>
        <time>2024-09-10T11:23:59.443Z</time>
      </trkpt>
      <trkpt lat="42.9517" lon="2.37128">
        <ele>357.5</ele>
        <time>2024-09-10T11:24:02.795Z</time>
      </trkpt>
      <trkpt lat="42.9517" lon="2.37147">
        <ele>356.1</ele>
        <time>2024-09-10T11:24:11.245Z</time>
      </trkpt>
      <trkpt lat="42.95166" lon="2.37164">
        <ele>354.6</ele>
        <time>2024-09-10T11:24:19.186Z</time>
      </trkpt>
      <trkpt lat="42.95158" lon="2.37183">
        <ele>353</ele>
        <time>2024-09-10T11:24:28.934Z</time>
      </trkpt>
      <trkpt lat="42.95154" lon="2.37193">
        <ele>352</ele>
        <time>2024-09-10T11:24:34.001Z</time>
      </trkpt>
      <trkpt lat="42.9515" lon="2.3721">
        <ele>351.2</ele>
        <time>2024-09-10T11:24:41.943Z</time>
      </trkpt>
      <trkpt lat="42.95148" lon="2.37234">
        <ele>349.9</ele>
        <time>2024-09-10T11:24:52.684Z</time>
      </trkpt>
      <trkpt lat="42.95149" lon="2.37248">
        <ele>349.3</ele>
        <time>2024-09-10T11:24:58.940Z</time>
      </trkpt>
      <trkpt lat="42.95152" lon="2.37251">
        <ele>349.1</ele>
        <time>2024-09-10T11:25:01.199Z</time>
      </trkpt>
      <trkpt lat="42.95158" lon="2.37258">
        <ele>348.7</ele>
        <time>2024-09-10T11:25:05.992Z</time>
      </trkpt>
      <trkpt lat="42.95159" lon="2.3726">
        <ele>348.7</ele>
        <time>2024-09-10T11:25:07.223Z</time>
      </trkpt>
      <trkpt lat="42.9516" lon="2.37265">
        <ele>348.8</ele>
        <time>2024-09-10T11:25:10.084Z</time>
      </trkpt>
      <trkpt lat="42.95159" lon="2.37275">
        <ele>349</ele>
        <time>2024-09-10T11:25:15.668Z</time>
      </trkpt>
      <trkpt lat="42.95156" lon="2.3729">
        <ele>349</ele>
        <time>2024-09-10T11:25:23.571Z</time>
      </trkpt>
      <trkpt lat="42.95156" lon="2.37301">
        <ele>349</ele>
        <time>2024-09-10T11:25:29.161Z</time>
      </trkpt>
      <trkpt lat="42.95159" lon="2.37308">
        <ele>349</ele>
        <time>2024-09-10T11:25:33.284Z</time>
      </trkpt>
      <trkpt lat="42.95162" lon="2.37312">
        <ele>349</ele>
        <time>2024-09-10T11:25:36.195Z</time>
      </trkpt>
      <trkpt lat="42.95172" lon="2.3732">
        <ele>349.1</ele>
        <time>2024-09-10T11:25:44.459Z</time>
      </trkpt>
      <trkpt lat="42.95192" lon="2.37334">
        <ele>349.9</ele>
        <time>2024-09-10T11:26:01.913Z</time>
      </trkpt>
      <trkpt lat="42.95227" lon="2.3736">
        <ele>351.1</ele>
        <time>2024-09-10T11:26:32.318Z</time>
      </trkpt>
      <trkpt lat="42.95248" lon="2.37375">
        <ele>352.9</ele>
        <time>2024-09-10T11:26:53.346Z</time>
      </trkpt>
      <trkpt lat="42.95249" lon="2.37377">
        <ele>353.1</ele>
        <time>2024-09-10T11:26:55.134Z</time>
        <extensions>
          <visugpx:TrkExtension xmlns:visugpx="https://www.visugpx.com/editgpx/">
            <visugpx:node>13</visugpx:node>
            </visugpx:TrkExtension>
        </extensions>
      </trkpt>
      <trkpt lat="42.95267" lon="2.37391">
        <ele>355.4</ele>
        <time>2024-09-10T11:27:15.886Z</time>
      </trkpt>
      <trkpt lat="42.95262" lon="2.37404">
        <ele>356</ele>
        <time>2024-09-10T11:27:24.804Z</time>
      </trkpt>
      <trkpt lat="42.95257" lon="2.37418">
        <ele>356.5</ele>
        <time>2024-09-10T11:27:33.899Z</time>
      </trkpt>
      <trkpt lat="42.95248" lon="2.37452">
        <ele>355.9</ele>
        <time>2024-09-10T11:27:51.052Z</time>
      </trkpt>
      <trkpt lat="42.95245" lon="2.37465">
        <ele>355.8</ele>
        <time>2024-09-10T11:27:57.770Z</time>
      </trkpt>
      <trkpt lat="42.95239" lon="2.37491">
        <ele>355.7</ele>
        <time>2024-09-10T11:28:11.414Z</time>
      </trkpt>
      <trkpt lat="42.95235" lon="2.37511">
        <ele>355.6</ele>
        <time>2024-09-10T11:28:21.741Z</time>
      </trkpt>
      <trkpt lat="42.95233" lon="2.37517">
        <ele>355.5</ele>
        <time>2024-09-10T11:28:24.887Z</time>
      </trkpt>
      <trkpt lat="42.95211" lon="2.37562">
        <ele>356.6</ele>
        <time>2024-09-10T11:28:54.889Z</time>
      </trkpt>
      <trkpt lat="42.95202" lon="2.37582">
        <ele>356.8</ele>
        <time>2024-09-10T11:29:07.260Z</time>
      </trkpt>
      <trkpt lat="42.95199" lon="2.37588">
        <ele>356.7</ele>
        <time>2024-09-10T11:29:10.748Z</time>
      </trkpt>
      <trkpt lat="42.95183" lon="2.37621">
        <ele>357</ele>
        <time>2024-09-10T11:29:31.521Z</time>
      </trkpt>
      <trkpt lat="42.9517" lon="2.37646">
        <ele>357</ele>
        <time>2024-09-10T11:29:47.107Z</time>
      </trkpt>
      <trkpt lat="42.95154" lon="2.37658">
        <ele>355.8</ele>
        <time>2024-09-10T11:29:58.197Z</time>
      </trkpt>
      <trkpt lat="42.9514" lon="2.37669">
        <ele>354.2</ele>
        <time>2024-09-10T11:30:08.009Z</time>
      </trkpt>
      <trkpt lat="42.95128" lon="2.37677">
        <ele>353.8</ele>
        <time>2024-09-10T11:30:16.478Z</time>
      </trkpt>
      <trkpt lat="42.95114" lon="2.37688">
        <ele>353.8</ele>
        <time>2024-09-10T11:30:27.693Z</time>
      </trkpt>
      <trkpt lat="42.95091" lon="2.37699">
        <ele>353.3</ele>
        <time>2024-09-10T11:30:43.591Z</time>
      </trkpt>
      <trkpt lat="42.95075" lon="2.37706">
        <ele>352.4</ele>
        <time>2024-09-10T11:30:53.798Z</time>
      </trkpt>
      <trkpt lat="42.95059" lon="2.37712">
        <ele>351.2</ele>
        <time>2024-09-10T11:31:03.879Z</time>
      </trkpt>
      <trkpt lat="42.95045" lon="2.37722">
        <ele>352.5</ele>
        <time>2024-09-10T11:31:18.203Z</time>
      </trkpt>
      <trkpt lat="42.95028" lon="2.37733">
        <ele>355.4</ele>
        <time>2024-09-10T11:31:40.243Z</time>
      </trkpt>
      <trkpt lat="42.95015" lon="2.37741">
        <ele>358.1</ele>
        <time>2024-09-10T11:31:59.339Z</time>
      </trkpt>
      <trkpt lat="42.95007" lon="2.37748">
        <ele>359.7</ele>
        <time>2024-09-10T11:32:11.082Z</time>
      </trkpt>
      <trkpt lat="42.95" lon="2.37757">
        <ele>360.7</ele>
        <time>2024-09-10T11:32:20.479Z</time>
      </trkpt>
      <trkpt lat="42.94996" lon="2.37768">
        <ele>361.5</ele>
        <time>2024-09-10T11:32:28.819Z</time>
      </trkpt>
      <trkpt lat="42.94995" lon="2.37783">
        <ele>361.4</ele>
        <time>2024-09-10T11:32:36.265Z</time>
      </trkpt>
      <trkpt lat="42.94995" lon="2.37792">
        <ele>361.7</ele>
        <time>2024-09-10T11:32:41.549Z</time>
      </trkpt>
      <trkpt lat="42.94998" lon="2.37814">
        <ele>362.3</ele>
        <time>2024-09-10T11:32:54.314Z</time>
      </trkpt>
      <trkpt lat="42.95002" lon="2.37836">
        <ele>363.7</ele>
        <time>2024-09-10T11:33:09.465Z</time>
      </trkpt>
      <trkpt lat="42.95002" lon="2.37846">
        <ele>364.1</ele>
        <time>2024-09-10T11:33:15.514Z</time>
      </trkpt>
      <trkpt lat="42.95001" lon="2.37853">
        <ele>364.5</ele>
        <time>2024-09-10T11:33:20.157Z</time>
      </trkpt>
      <trkpt lat="42.94998" lon="2.37858">
        <ele>365.1</ele>
        <time>2024-09-10T11:33:25.173Z</time>
      </trkpt>
      <trkpt lat="42.94993" lon="2.37859">
        <ele>365.7</ele>
        <time>2024-09-10T11:33:30.376Z</time>
      </trkpt>
      <trkpt lat="42.94987" lon="2.37859">
        <ele>366.4</ele>
        <time>2024-09-10T11:33:36.509Z</time>
      </trkpt>
      <trkpt lat="42.9498" lon="2.37856">
        <ele>367.1</ele>
        <time>2024-09-10T11:33:43.468Z</time>
      </trkpt>
      <trkpt lat="42.94975" lon="2.37846">
        <ele>367.6</ele>
        <time>2024-09-10T11:33:50.836Z</time>
      </trkpt>
      <trkpt lat="42.94971" lon="2.37837">
        <ele>368.4</ele>
        <time>2024-09-10T11:33:58.364Z</time>
        <extensions>
          <visugpx:TrkExtension xmlns:visugpx="https://www.visugpx.com/editgpx/">
            <visugpx:node>14</visugpx:node>
            </visugpx:TrkExtension>
        </extensions>
      </trkpt>
      <trkpt lat="42.9497" lon="2.37833">
        <ele>368.7</ele>
        <time>2024-09-10T11:34:01.314Z</time>
      </trkpt>
      <trkpt lat="42.9496" lon="2.37806">
        <ele>370.5</ele>
        <time>2024-09-10T11:34:21.327Z</time>
      </trkpt>
      <trkpt lat="42.94956" lon="2.3779">
        <ele>372.3</ele>
        <time>2024-09-10T11:34:35.366Z</time>
      </trkpt>
      <trkpt lat="42.94956" lon="2.37781">
        <ele>372.7</ele>
        <time>2024-09-10T11:34:40.921Z</time>
      </trkpt>
      <trkpt lat="42.9496" lon="2.37762">
        <ele>373.6</ele>
        <time>2024-09-10T11:34:53.182Z</time>
      </trkpt>
      <trkpt lat="42.94964" lon="2.37749">
        <ele>373.5</ele>
        <time>2024-09-10T11:35:00.140Z</time>
      </trkpt>
      <trkpt lat="42.94963" lon="2.37741">
        <ele>373.6</ele>
        <time>2024-09-10T11:35:04.487Z</time>
      </trkpt>
      <trkpt lat="42.94961" lon="2.37731">
        <ele>373.9</ele>
        <time>2024-09-10T11:35:10.456Z</time>
      </trkpt>
      <trkpt lat="42.94953" lon="2.37711">
        <ele>375</ele>
        <time>2024-09-10T11:35:24.769Z</time>
      </trkpt>
      <trkpt lat="42.94942" lon="2.37697">
        <ele>376.2</ele>
        <time>2024-09-10T11:35:38.286Z</time>
      </trkpt>
      <trkpt lat="42.94923" lon="2.37676">
        <ele>378.8</ele>
        <time>2024-09-10T11:36:02.374Z</time>
      </trkpt>
      <trkpt lat="42.94918" lon="2.3767">
        <ele>379.2</ele>
        <time>2024-09-10T11:36:07.973Z</time>
      </trkpt>
      <trkpt lat="42.94908" lon="2.37661">
        <ele>379</ele>
        <time>2024-09-10T11:36:15.876Z</time>
      </trkpt>
      <trkpt lat="42.94902" lon="2.37655">
        <ele>379.1</ele>
        <time>2024-09-10T11:36:21.259Z</time>
      </trkpt>
      <trkpt lat="42.94897" lon="2.37649">
        <ele>379.1</ele>
        <time>2024-09-10T11:36:25.880Z</time>
      </trkpt>
      <trkpt lat="42.94891" lon="2.37635">
        <ele>379.6</ele>
        <time>2024-09-10T11:36:35.299Z</time>
      </trkpt>
      <trkpt lat="42.94884" lon="2.37619">
        <ele>380.2</ele>
        <time>2024-09-10T11:36:46.188Z</time>
      </trkpt>
      <trkpt lat="42.94878" lon="2.37606">
        <ele>380.3</ele>
        <time>2024-09-10T11:36:54.217Z</time>
      </trkpt>
      <trkpt lat="42.94872" lon="2.37597">
        <ele>380.1</ele>
        <time>2024-09-10T11:36:59.997Z</time>
      </trkpt>
      <trkpt lat="42.94865" lon="2.3759">
        <ele>379.2</ele>
        <time>2024-09-10T11:37:05.267Z</time>
      </trkpt>
      <trkpt lat="42.94858" lon="2.37582">
        <ele>378.8</ele>
        <time>2024-09-10T11:37:10.825Z</time>
      </trkpt>
      <trkpt lat="42.94847" lon="2.37575">
        <ele>378.6</ele>
        <time>2024-09-10T11:37:18.838Z</time>
      </trkpt>
      <trkpt lat="42.94838" lon="2.3757">
        <ele>378.5</ele>
        <time>2024-09-10T11:37:25.375Z</time>
      </trkpt>
      <trkpt lat="42.94827" lon="2.37566">
        <ele>377.6</ele>
        <time>2024-09-10T11:37:32.291Z</time>
      </trkpt>
      <trkpt lat="42.94818" lon="2.37561">
        <ele>376.8</ele>
        <time>2024-09-10T11:37:38.194Z</time>
      </trkpt>
      <trkpt lat="42.94809" lon="2.37556">
        <ele>375.7</ele>
        <time>2024-09-10T11:37:44.097Z</time>
      </trkpt>
      <trkpt lat="42.94801" lon="2.37548">
        <ele>375.6</ele>
        <time>2024-09-10T11:37:50.772Z</time>
      </trkpt>
      <trkpt lat="42.94794" lon="2.37539">
        <ele>375.5</ele>
        <time>2024-09-10T11:37:57.238Z</time>
      </trkpt>
      <trkpt lat="42.94787" lon="2.37527">
        <ele>375</ele>
        <time>2024-09-10T11:38:04.062Z</time>
      </trkpt>
      <trkpt lat="42.9478" lon="2.37514">
        <ele>373.2</ele>
        <time>2024-09-10T11:38:11.240Z</time>
      </trkpt>
      <trkpt lat="42.94773" lon="2.37498">
        <ele>372.4</ele>
        <time>2024-09-10T11:38:19.530Z</time>
      </trkpt>
      <trkpt lat="42.94767" lon="2.37483">
        <ele>372.8</ele>
        <time>2024-09-10T11:38:29.135Z</time>
      </trkpt>
      <trkpt lat="42.94762" lon="2.37468">
        <ele>372.6</ele>
        <time>2024-09-10T11:38:37.100Z</time>
      </trkpt>
      <trkpt lat="42.94754" lon="2.37441">
        <ele>371.1</ele>
        <time>2024-09-10T11:38:50.054Z</time>
      </trkpt>
      <trkpt lat="42.94746" lon="2.37416">
        <ele>368.5</ele>
        <time>2024-09-10T11:39:02.189Z</time>
      </trkpt>
      <trkpt lat="42.94739" lon="2.37385">
        <ele>369.9</ele>
        <time>2024-09-10T11:39:22.095Z</time>
      </trkpt>
      <trkpt lat="42.94735" lon="2.37367">
        <ele>369.5</ele>
        <time>2024-09-10T11:39:30.852Z</time>
      </trkpt>
      <trkpt lat="42.9473" lon="2.37342">
        <ele>368.7</ele>
        <time>2024-09-10T11:39:42.459Z</time>
      </trkpt>
      <trkpt lat="42.94727" lon="2.37319">
        <ele>367.3</ele>
        <time>2024-09-10T11:39:52.849Z</time>
      </trkpt>
      <trkpt lat="42.94728" lon="2.37309">
        <ele>367</ele>
        <time>2024-09-10T11:39:57.391Z</time>
      </trkpt>
      <trkpt lat="42.94729" lon="2.37301">
        <ele>366.5</ele>
        <time>2024-09-10T11:40:01.000Z</time>
      </trkpt>
    </trkseg>
  </trk>
</gpx>